Observation data for Adrian on 07/09/2018      Previous  Date  Next       Current Mesonet Observations  Soil Data  Daily Summary Page  Observations in Plain Language
KAD1 090500Z 16011KT 21/14 A3028 RMK A01 T02130139  RH  063%=      5-min Rain = 0
KAD1 090501Z 16012KT 21/14 A3028 RMK A01 T02130139  RH  063%=      5-min Rain = 0
KAD1 090502Z 16011KT 21/14 A3028 RMK A01 T02130139  RH  063%=      5-min Rain = 0
KAD1 090503Z 16011KT 21/14 A3028 RMK A01 T02130139  RH  063%=      5-min Rain = 0
KAD1 090504Z 16011KT 21/14 A3028 RMK A01 T02130139  RH  063%=      5-min Rain = 0
KAD1 090505Z 16011KT 21/14 A3028 RMK A01 T02140139  RH  062%=      5-min Rain = 0
KAD1 090506Z 16012KT 21/14 A3028 RMK A01 T02140139  RH  062%=      5-min Rain = 0
KAD1 090507Z 16012KT 21/14 A3028 RMK A01 T02140139  RH  062%=      5-min Rain = 0
KAD1 090508Z 16011KT 21/14 A3028 RMK A01 T02140139  RH  062%=      5-min Rain = 0
KAD1 090509Z 16012KT 21/14 A3028 RMK A01 T02140139  RH  062%=      5-min Rain = 0
KAD1 090510Z 15012KT 21/14 A3028 RMK A01 T02130139  RH  063%=      5-min Rain = 0
KAD1 090511Z 16012KT 21/14 A3028 RMK A01 T02130139  RH  063%=      5-min Rain = 0
KAD1 090512Z 15013KT 21/14 A3028 RMK A01 T02120139  RH  063%=      5-min Rain = 0
KAD1 090513Z 15013KT 21/14 A3028 RMK A01 T02130139  RH  063%=      5-min Rain = 0
KAD1 090514Z 15013KT 21/14 A3028 RMK A01 T02130138  RH  062%=      5-min Rain = 0
KAD1 090515Z 15014KT 21/14 A3028 RMK A01 T02130138  RH  062%=      5-min Rain = 0
KAD1 090516Z 14014KT 21/14 A3028 RMK A01 T02140139  RH  062%=      5-min Rain = 0
KAD1 090517Z 14014KT 22/14 A3028 RMK A01 T02150139  RH  062%=      5-min Rain = 0
KAD1 090518Z 15014KT 22/14 A3028 RMK A01 T02150138  RH  062%=      5-min Rain = 0
KAD1 090519Z 15013KT 22/14 A3028 RMK A01 T02150139  RH  062%=      5-min Rain = 0
KAD1 090520Z 15014KT 22/14 A3028 RMK A01 T02150139  RH  062%=      5-min Rain = 0
KAD1 090521Z 15014KT 22/14 A3028 RMK A01 T02150139  RH  062%=      5-min Rain = 0
KAD1 090522Z 15014KT 22/14 A3028 RMK A01 T02150138  RH  062%=      5-min Rain = 0
KAD1 090523Z 15014KT 22/14 A3028 RMK A01 T02150139  RH  062%=      5-min Rain = 0
KAD1 090524Z 15013KT 22/14 A3028 RMK A01 T02150139  RH  062%=      5-min Rain = 0
KAD1 090525Z 15013KT 22/14 A3028 RMK A01 T02150139  RH  062%=      5-min Rain = 0
KAD1 090526Z 15012KT 22/14 A3028 RMK A01 T02150139  RH  062%=      5-min Rain = 0
KAD1 090527Z 15013KT 22/14 A3028 RMK A01 T02150139  RH  062%=      5-min Rain = 0
KAD1 090528Z 15013KT 21/14 A3028 RMK A01 T02140139  RH  062%=      5-min Rain = 0
KAD1 090529Z 15012KT 21/14 A3028 RMK A01 T02140139  RH  062%=      5-min Rain = 0
KAD1 090530Z 15013KT 21/14 A3028 RMK A01 T02140140  RH  063%=      5-min Rain = 0
KAD1 090531Z 15014KT 21/14 A3028 RMK A01 T02130140  RH  063%=      5-min Rain = 0
KAD1 090532Z 15013KT 21/14 A3028 RMK A01 T02130140  RH  063%=      5-min Rain = 0
KAD1 090533Z 15013KT 21/14 A3028 RMK A01 T02130140  RH  063%=      5-min Rain = 0
KAD1 090534Z 15013KT 21/14 A3028 RMK A01 T02130140  RH  063%=      5-min Rain = 0
KAD1 090535Z 15014KT 21/14 A3028 RMK A01 T02140140  RH  063%=      5-min Rain = 0
KAD1 090536Z 15014KT 21/14 A3028 RMK A01 T02140140  RH  063%=      5-min Rain = 0
KAD1 090537Z 15014KT 21/14 A3028 RMK A01 T02140140  RH  063%=      5-min Rain = 0
KAD1 090538Z 15014KT 21/14 A3028 RMK A01 T02140140  RH  063%=      5-min Rain = 0
KAD1 090539Z 15015KT 21/14 A3028 RMK A01 T02140140  RH  063%=      5-min Rain = 0
KAD1 090540Z 15014KT 21/14 A3028 RMK A01 T02130140  RH  063%=      5-min Rain = 0
KAD1 090541Z 16014KT 21/14 A3028 RMK A01 T02130141  RH  063%=      5-min Rain = 0
KAD1 090542Z 16014KT 21/14 A3028 RMK A01 T02130141  RH  063%=      5-min Rain = 0
KAD1 090543Z 16014KT 21/14 A3028 RMK A01 T02130140  RH  063%=      5-min Rain = 0
KAD1 090544Z 16014KT 21/14 A3028 RMK A01 T02130140  RH  063%=      5-min Rain = 0
KAD1 090545Z 16015KT 21/14 A3028 RMK A01 T02130140  RH  063%=      5-min Rain = 0
KAD1 090546Z 16014KT 21/14 A3028 RMK A01 T02120140  RH  063%=      5-min Rain = 0
KAD1 090547Z 16014KT 21/14 A3028 RMK A01 T02120140  RH  063%=      5-min Rain = 0
KAD1 090548Z 16014KT 21/14 A3028 RMK A01 T02120140  RH  063%=      5-min Rain = 0
KAD1 090549Z 16014KT 21/14 A3028 RMK A01 T02120140  RH  063%=      5-min Rain = 0
KAD1 090550Z 16014KT 21/14 A3029 RMK A01 T02120140  RH  063%=      5-min Rain = 0
KAD1 090551Z 16014KT 21/14 A3029 RMK A01 T02110140  RH  064%=      5-min Rain = 0
KAD1 090552Z 16013KT 21/14 A3029 RMK A01 T02110140  RH  064%=      5-min Rain = 0
KAD1 090553Z 16013KT 21/14 A3029 RMK A01 T02110140  RH  064%=      5-min Rain = 0
KAD1 090554Z 16014KT 21/14 A3029 RMK A01 T02100140  RH  064%=      5-min Rain = 0
KAD1 090555Z 16014KT 21/14 A3029 RMK A01 T02100140  RH  064%=      5-min Rain = 0
KAD1 090556Z 16014KT 21/14 A3029 RMK A01 T02100140  RH  064%=      5-min Rain = 0
KAD1 090557Z 16013KT 21/14 A3029 RMK A01 T02100140  RH  064%=      5-min Rain = 0
KAD1 090558Z 16014KT 21/14 A3029 RMK A01 T02100140  RH  064%=      5-min Rain = 0
KAD1 090559Z 16013KT 21/14 A3029 RMK A01 T02100140  RH  064%=      5-min Rain = 0
KAD1 090600Z 16013KT 21/14 A3029 RMK A01 T02100140  RH  064%=      5-min Rain = 0
KAD1 090601Z 16013KT 21/14 A3029 RMK A01 T02100140  RH  064%=      5-min Rain = 0
KAD1 090602Z 15013KT 21/14 A3029 RMK A01 T02100140  RH  065%=      5-min Rain = 0
KAD1 090603Z 16013KT 21/14 A3028 RMK A01 T02090140  RH  065%=      5-min Rain = 0
KAD1 090604Z 16013KT 21/14 A3028 RMK A01 T02090140  RH  065%=      5-min Rain = 0
KAD1 090605Z 16014KT 21/14 A3028 RMK A01 T02080140  RH  065%=      5-min Rain = 0
KAD1 090606Z 16014KT 21/14 A3028 RMK A01 T02080140  RH  065%=      5-min Rain = 0
KAD1 090607Z 16014KT 21/14 A3028 RMK A01 T02090141  RH  065%=      5-min Rain = 0
KAD1 090608Z 16014KT 21/14 A3028 RMK A01 T02090141  RH  065%=      5-min Rain = 0
KAD1 090609Z 16014KT 21/14 A3028 RMK A01 T02090141  RH  065%=      5-min Rain = 0
KAD1 090610Z 16015KT 21/14 A3028 RMK A01 T02090141  RH  065%=      5-min Rain = 0
KAD1 090611Z 16016KT 21/14 A3028 RMK A01 T02090140  RH  065%=      5-min Rain = 0
KAD1 090612Z 16016KT 21/14 A3028 RMK A01 T02090141  RH  065%=      5-min Rain = 0
KAD1 090613Z 16015KT 21/14 A3028 RMK A01 T02090141  RH  065%=      5-min Rain = 0
KAD1 090614Z 16015KT 21/14 A3028 RMK A01 T02090141  RH  065%=      5-min Rain = 0
KAD1 090615Z 16015KT 21/14 A3028 RMK A01 T02090141  RH  065%=      5-min Rain = 0
KAD1 090616Z 16015KT 21/14 A3028 RMK A01 T02090141  RH  065%=      5-min Rain = 0
KAD1 090617Z 17015KT 21/14 A3028 RMK A01 T02080141  RH  065%=      5-min Rain = 0
KAD1 090618Z 17015KT 21/14 A3028 RMK A01 T02090141  RH  065%=      5-min Rain = 0
KAD1 090619Z 17014KT 21/14 A3028 RMK A01 T02080141  RH  065%=      5-min Rain = 0
KAD1 090620Z 17013KT 21/14 A3029 RMK A01 T02080141  RH  065%=      5-min Rain = 0
KAD1 090621Z 17013KT 21/14 A3029 RMK A01 T02080141  RH  066%=      5-min Rain = 0
KAD1 090622Z 17013KT 21/14 A3029 RMK A01 T02070141  RH  066%=      5-min Rain = 0
KAD1 090623Z 17013KT 21/14 A3029 RMK A01 T02070141  RH  066%=      5-min Rain = 0
KAD1 090624Z 17014KT 21/14 A3028 RMK A01 T02060141  RH  066%=      5-min Rain = 0
KAD1 090625Z 17014KT 21/14 A3028 RMK A01 T02060142  RH  066%=      5-min Rain = 0
KAD1 090626Z 17014KT 21/14 A3028 RMK A01 T02060141  RH  066%=      5-min Rain = 0
KAD1 090627Z 16014KT 21/14 A3028 RMK A01 T02060141  RH  066%=      5-min Rain = 0
KAD1 090628Z 16015KT 21/14 A3028 RMK A01 T02050141  RH  067%=      5-min Rain = 0
KAD1 090629Z 17015KT 21/14 A3028 RMK A01 T02060142  RH  067%=      5-min Rain = 0
KAD1 090630Z 17015KT 21/14 A3029 RMK A01 T02050142  RH  067%=      5-min Rain = 0
KAD1 090631Z 17014KT 21/14 A3029 RMK A01 T02050142  RH  067%=      5-min Rain = 0
KAD1 090632Z 17013KT 21/14 A3029 RMK A01 T02050141  RH  067%=      5-min Rain = 0
KAD1 090633Z 17012KT 21/14 A3029 RMK A01 T02050142  RH  067%=      5-min Rain = 0
KAD1 090634Z 17012KT 21/14 A3029 RMK A01 T02050142  RH  067%=      5-min Rain = 0
KAD1 090635Z 17012KT 21/14 A3029 RMK A01 T02050142  RH  067%=      5-min Rain = 0
KAD1 090636Z 17012KT 20/14 A3029 RMK A01 T02040142  RH  067%=      5-min Rain = 0
KAD1 090637Z 17013KT 20/14 A3029 RMK A01 T02040142  RH  068%=      5-min Rain = 0
KAD1 090638Z 17013KT 20/14 A3029 RMK A01 T02040142  RH  068%=      5-min Rain = 0
KAD1 090639Z 17014KT 21/14 A3029 RMK A01 T02050143  RH  068%=      5-min Rain = 0
KAD1 090640Z 17015KT 20/14 A3029 RMK A01 T02040142  RH  068%=      5-min Rain = 0
KAD1 090641Z 17015KT 20/14 A3029 RMK A01 T02040143  RH  068%=      5-min Rain = 0
KAD1 090642Z 17016KT 20/14 A3029 RMK A01 T02040143  RH  068%=      5-min Rain = 0
KAD1 090643Z 17015KT 20/14 A3029 RMK A01 T02040143  RH  068%=      5-min Rain = 0
KAD1 090644Z 17015KT 20/14 A3029 RMK A01 T02040143  RH  068%=      5-min Rain = 0
KAD1 090645Z 17014KT 20/14 A3029 RMK A01 T02040143  RH  068%=      5-min Rain = 0
KAD1 090646Z 17014KT 20/14 A3029 RMK A01 T02040143  RH  068%=      5-min Rain = 0
KAD1 090647Z 17014KT 20/14 A3029 RMK A01 T02030143  RH  068%=      5-min Rain = 0
KAD1 090648Z 17014KT 20/14 A3029 RMK A01 T02030143  RH  068%=      5-min Rain = 0
KAD1 090649Z 17012KT 20/14 A3029 RMK A01 T02030143  RH  068%=      5-min Rain = 0
KAD1 090650Z 17012KT 20/14 A3029 RMK A01 T02030143  RH  069%=      5-min Rain = 0
KAD1 090651Z 17011KT 20/14 A3029 RMK A01 T02030144  RH  069%=      5-min Rain = 0
KAD1 090652Z 17012KT 20/14 A3029 RMK A01 T02020143  RH  069%=      5-min Rain = 0
KAD1 090653Z 17012KT 20/14 A3029 RMK A01 T02020143  RH  069%=      5-min Rain = 0
KAD1 090654Z 18013KT 20/14 A3029 RMK A01 T02020144  RH  069%=      5-min Rain = 0
KAD1 090655Z 17014KT 20/14 A3029 RMK A01 T02020143  RH  069%=      5-min Rain = 0
KAD1 090656Z 18014KT 20/14 A3029 RMK A01 T02020144  RH  069%=      5-min Rain = 0
KAD1 090657Z 17015KT 20/14 A3029 RMK A01 T02020144  RH  069%=      5-min Rain = 0
KAD1 090658Z 18015KT 20/14 A3029 RMK A01 T02020144  RH  069%=      5-min Rain = 0
KAD1 090659Z 18015KT 20/14 A3029 RMK A01 T02020144  RH  069%=      5-min Rain = 0
KAD1 090700Z 17015KT 20/14 A3029 RMK A01 T02020144  RH  069%=      5-min Rain = 0
KAD1 090701Z 17014KT 20/14 A3029 RMK A01 T02020144  RH  069%=      5-min Rain = 0
KAD1 090702Z 17014KT 20/14 A3029 RMK A01 T02020144  RH  069%=      5-min Rain = 0
KAD1 090703Z 17013KT 20/15 A3029 RMK A01 T02020145  RH  070%=      5-min Rain = 0
KAD1 090704Z 18011KT 20/15 A3029 RMK A01 T02020145  RH  070%=      5-min Rain = 0
KAD1 090705Z 18011KT 20/15 A3029 RMK A01 T02010145  RH  070%=      5-min Rain = 0
KAD1 090706Z 18011KT 20/15 A3029 RMK A01 T02000145  RH  070%=      5-min Rain = 0
KAD1 090707Z 18012KT 20/15 A3029 RMK A01 T02000145  RH  071%=      5-min Rain = 0
KAD1 090708Z 18013KT 20/15 A3029 RMK A01 T02000145  RH  071%=      5-min Rain = 0
KAD1 090709Z 18013KT 20/15 A3029 RMK A01 T02000145  RH  071%=      5-min Rain = 0
KAD1 090710Z 18014KT 20/15 A3029 RMK A01 T02000145  RH  071%=      5-min Rain = 0
KAD1 090711Z 18015KT 20/15 A3029 RMK A01 T02000145  RH  071%=      5-min Rain = 0
KAD1 090712Z 18014KT 20/14 A3029 RMK A01 T02000144  RH  070%=      5-min Rain = 0
KAD1 090713Z 18014KT 20/14 A3029 RMK A01 T02000144  RH  070%=      5-min Rain = 0
KAD1 090714Z 18014KT 20/14 A3029 RMK A01 T02000144  RH  070%=      5-min Rain = 0
KAD1 090715Z 18014KT 20/14 A3029 RMK A01 T02000144  RH  070%=      5-min Rain = 0
KAD1 090716Z 18013KT 20/14 A3029 RMK A01 T02000144  RH  070%=      5-min Rain = 0
KAD1 090717Z 18012KT 20/15 A3029 RMK A01 T02000145  RH  070%=      5-min Rain = 0
KAD1 090718Z 18013KT 20/14 A3029 RMK A01 T01990144  RH  071%=      5-min Rain = 0
KAD1 090719Z 18012KT 20/14 A3029 RMK A01 T01990144  RH  071%=      5-min Rain = 0
KAD1 090720Z 18012KT 20/14 A3029 RMK A01 T01990144  RH  071%=      5-min Rain = 0
KAD1 090721Z 18012KT 20/14 A3029 RMK A01 T01990144  RH  071%=      5-min Rain = 0
KAD1 090722Z 18012KT 20/14 A3029 RMK A01 T01990144  RH  071%=      5-min Rain = 0
KAD1 090723Z 18012KT 20/14 A3029 RMK A01 T01990144  RH  071%=      5-min Rain = 0
KAD1 090724Z 18012KT 20/14 A3028 RMK A01 T01980144  RH  071%=      5-min Rain = 0
KAD1 090725Z 18012KT 20/14 A3028 RMK A01 T01980144  RH  071%=      5-min Rain = 0
KAD1 090726Z 18012KT 20/14 A3028 RMK A01 T01980144  RH  071%=      5-min Rain = 0
KAD1 090727Z 18012KT 20/14 A3028 RMK A01 T01980144  RH  071%=      5-min Rain = 0
KAD1 090728Z 18012KT 20/14 A3028 RMK A01 T01980144  RH  071%=      5-min Rain = 0
KAD1 090729Z 18012KT 20/14 A3028 RMK A01 T01980144  RH  071%=      5-min Rain = 0
KAD1 090730Z 19011KT 20/14 A3028 RMK A01 T01990144  RH  071%=      5-min Rain = 0
KAD1 090731Z 19010KT 20/14 A3029 RMK A01 T01990144  RH  071%=      5-min Rain = 0
KAD1 090732Z 19010KT 20/14 A3028 RMK A01 T01980144  RH  071%=      5-min Rain = 0
KAD1 090733Z 19010KT 20/15 A3028 RMK A01 T01980145  RH  071%=      5-min Rain = 0
KAD1 090734Z 18012KT 20/14 A3028 RMK A01 T01970144  RH  072%=      5-min Rain = 0
KAD1 090735Z 18012KT 20/14 A3028 RMK A01 T01960144  RH  072%=      5-min Rain = 0
KAD1 090736Z 18013KT 20/15 A3028 RMK A01 T01960145  RH  072%=      5-min Rain = 0
KAD1 090737Z 18012KT 20/15 A3028 RMK A01 T01970145  RH  072%=      5-min Rain = 0
KAD1 090738Z 18012KT 20/15 A3028 RMK A01 T01970145  RH  071%=      5-min Rain = 0
KAD1 090739Z 19012KT 20/14 A3028 RMK A01 T01970144  RH  071%=      5-min Rain = 0
KAD1 090740Z 19012KT 20/14 A3028 RMK A01 T01970144  RH  071%=      5-min Rain = 0
KAD1 090741Z 19011KT 20/15 A3028 RMK A01 T01970145  RH  072%=      5-min Rain = 0
KAD1 090742Z 19011KT 20/15 A3028 RMK A01 T01970145  RH  072%=      5-min Rain = 0
KAD1 090743Z 19011KT 20/15 A3028 RMK A01 T01960145  RH  072%=      5-min Rain = 0
KAD1 090744Z 19011KT 20/15 A3028 RMK A01 T01950145  RH  072%=      5-min Rain = 0
KAD1 090745Z 19012KT 20/15 A3028 RMK A01 T01950145  RH  073%=      5-min Rain = 0
KAD1 090746Z 19012KT 20/15 A3028 RMK A01 T01950145  RH  073%=      5-min Rain = 0
KAD1 090747Z 19012KT 20/15 A3028 RMK A01 T01950145  RH  073%=      5-min Rain = 0
KAD1 090748Z 19011KT 20/15 A3028 RMK A01 T01950145  RH  073%=      5-min Rain = 0
KAD1 090749Z 19011KT 20/15 A3028 RMK A01 T01950145  RH  073%=      5-min Rain = 0
KAD1 090750Z 19011KT 19/14 A3028 RMK A01 T01940144  RH  073%=      5-min Rain = 0
KAD1 090751Z 19011KT 19/14 A3028 RMK A01 T01940144  RH  073%=      5-min Rain = 0
KAD1 090752Z 19010KT 19/14 A3028 RMK A01 T01940144  RH  073%=      5-min Rain = 0
KAD1 090753Z 19010KT 19/14 A3028 RMK A01 T01930144  RH  073%=      5-min Rain = 0
KAD1 090754Z 19010KT 19/14 A3028 RMK A01 T01930144  RH  073%=      5-min Rain = 0
KAD1 090755Z 19010KT 19/14 A3028 RMK A01 T01920144  RH  074%=      5-min Rain = 0
KAD1 090756Z 20010KT 19/14 A3028 RMK A01 T01910144  RH  074%=      5-min Rain = 0
KAD1 090757Z 20009KT 19/14 A3028 RMK A01 T01900144  RH  074%=      5-min Rain = 0
KAD1 090758Z 20010KT 19/14 A3028 RMK A01 T01900144  RH  075%=      5-min Rain = 0
KAD1 090759Z 20010KT 19/14 A3028 RMK A01 T01890144  RH  075%=      5-min Rain = 0
KAD1 090800Z 20011KT 19/14 A3028 RMK A01 T01890144  RH  075%=      5-min Rain = 0
KAD1 090801Z 20011KT 19/14 A3028 RMK A01 T01890144  RH  075%=      5-min Rain = 0
KAD1 090802Z 19011KT 19/14 A3028 RMK A01 T01890144  RH  075%=      5-min Rain = 0
KAD1 090803Z 20011KT 19/14 A3028 RMK A01 T01900143  RH  074%=      5-min Rain = 0
KAD1 090804Z 20011KT 19/14 A3028 RMK A01 T01900144  RH  074%=      5-min Rain = 0
KAD1 090805Z 20011KT 19/14 A3028 RMK A01 T01900144  RH  074%=      5-min Rain = 0
KAD1 090806Z 20011KT 19/14 A3028 RMK A01 T01910144  RH  074%=      5-min Rain = 0
KAD1 090807Z 19011KT 19/14 A3028 RMK A01 T01910144  RH  074%=      5-min Rain = 0
KAD1 090808Z 19010KT 19/14 A3028 RMK A01 T01910144  RH  074%=      5-min Rain = 0
KAD1 090809Z 20009KT 19/14 A3029 RMK A01 T01910144  RH  074%=      5-min Rain = 0
KAD1 090810Z 19008KT 19/14 A3029 RMK A01 T01910144  RH  074%=      5-min Rain = 0
KAD1 090811Z 19009KT 19/14 A3029 RMK A01 T01910144  RH  074%=      5-min Rain = 0
KAD1 090812Z 19008KT 19/14 A3029 RMK A01 T01900144  RH  074%=      5-min Rain = 0
KAD1 090813Z 19008KT 19/14 A3029 RMK A01 T01900144  RH  075%=      5-min Rain = 0
KAD1 090814Z 19009KT 19/14 A3029 RMK A01 T01890143  RH  075%=      5-min Rain = 0
KAD1 090815Z 19009KT 19/14 A3029 RMK A01 T01880144  RH  075%=      5-min Rain = 0
KAD1 090816Z 19011KT 19/14 A3029 RMK A01 T01880144  RH  075%=      5-min Rain = 0
KAD1 090817Z 19011KT 19/14 A3029 RMK A01 T01880144  RH  076%=      5-min Rain = 0
KAD1 090818Z 19011KT 19/14 A3029 RMK A01 T01890144  RH  075%=      5-min Rain = 0
KAD1 090819Z 19011KT 19/14 A3029 RMK A01 T01900144  RH  075%=      5-min Rain = 0
KAD1 090820Z 19011KT 19/14 A3029 RMK A01 T01900144  RH  075%=      5-min Rain = 0
KAD1 090821Z 19010KT 19/14 A3029 RMK A01 T01910144  RH  075%=      5-min Rain = 0
KAD1 090822Z 19010KT 19/14 A3029 RMK A01 T01910144  RH  074%=      5-min Rain = 0
KAD1 090823Z 19010KT 19/14 A3029 RMK A01 T01900144  RH  075%=      5-min Rain = 0
KAD1 090824Z 19009KT 19/14 A3029 RMK A01 T01900144  RH  075%=      5-min Rain = 0
KAD1 090825Z 19009KT 19/14 A3029 RMK A01 T01900144  RH  075%=      5-min Rain = 0
KAD1 090826Z 19009KT 19/14 A3029 RMK A01 T01890144  RH  075%=      5-min Rain = 0
KAD1 090827Z 19009KT 19/14 A3029 RMK A01 T01890144  RH  075%=      5-min Rain = 0
KAD1 090828Z 18009KT 19/14 A3029 RMK A01 T01880144  RH  075%=      5-min Rain = 0
KAD1 090829Z 19010KT 19/14 A3029 RMK A01 T01880144  RH  076%=      5-min Rain = 0
KAD1 090830Z 19010KT 19/14 A3029 RMK A01 T01870144  RH  076%=      5-min Rain = 0
KAD1 090831Z 19010KT 19/14 A3029 RMK A01 T01870144  RH  076%=      5-min Rain = 0
KAD1 090832Z 19010KT 19/14 A3029 RMK A01 T01880144  RH  076%=      5-min Rain = 0
KAD1 090833Z 19010KT 19/14 A3028 RMK A01 T01870144  RH  076%=      5-min Rain = 0
KAD1 090834Z 19011KT 19/14 A3028 RMK A01 T01870144  RH  076%=      5-min Rain = 0
KAD1 090835Z 19010KT 19/14 A3028 RMK A01 T01870144  RH  076%=      5-min Rain = 0
KAD1 090836Z 19010KT 19/14 A3028 RMK A01 T01870144  RH  076%=      5-min Rain = 0
KAD1 090837Z 19009KT 19/15 A3028 RMK A01 T01880145  RH  076%=      5-min Rain = 0
KAD1 090838Z 19009KT 19/14 A3028 RMK A01 T01880144  RH  076%=      5-min Rain = 0
KAD1 090839Z 19009KT 19/14 A3028 RMK A01 T01880144  RH  076%=      5-min Rain = 0
KAD1 090840Z 19009KT 19/15 A3028 RMK A01 T01880145  RH  076%=      5-min Rain = 0
KAD1 090841Z 19009KT 19/15 A3029 RMK A01 T01880145  RH  076%=      5-min Rain = 0
KAD1 090842Z 19009KT 19/15 A3029 RMK A01 T01880145  RH  076%=      5-min Rain = 0
KAD1 090843Z 19009KT 19/14 A3029 RMK A01 T01870144  RH  076%=      5-min Rain = 0
KAD1 090844Z 19009KT 19/14 A3029 RMK A01 T01860144  RH  076%=      5-min Rain = 0
KAD1 090845Z 19010KT 19/14 A3029 RMK A01 T01860144  RH  077%=      5-min Rain = 0
KAD1 090846Z 19011KT 19/15 A3029 RMK A01 T01860145  RH  077%=      5-min Rain = 0
KAD1 090847Z 19011KT 19/15 A3029 RMK A01 T01860145  RH  077%=      5-min Rain = 0
KAD1 090848Z 19011KT 19/15 A3029 RMK A01 T01860145  RH  077%=      5-min Rain = 0
KAD1 090849Z 19012KT 19/15 A3028 RMK A01 T01860145  RH  077%=      5-min Rain = 0
KAD1 090850Z 19011KT 19/15 A3028 RMK A01 T01870145  RH  077%=      5-min Rain = 0
KAD1 090851Z 19012KT 19/15 A3028 RMK A01 T01870145  RH  076%=      5-min Rain = 0
KAD1 090852Z 19011KT 19/15 A3028 RMK A01 T01880145  RH  076%=      5-min Rain = 0
KAD1 090853Z 19010KT 19/15 A3028 RMK A01 T01890145  RH  076%=      5-min Rain = 0
KAD1 090854Z 19010KT 19/15 A3028 RMK A01 T01880145  RH  076%=      5-min Rain = 0
KAD1 090855Z 19010KT 19/15 A3028 RMK A01 T01880145  RH  076%=      5-min Rain = 0
KAD1 090856Z 19010KT 19/14 A3028 RMK A01 T01870144  RH  076%=      5-min Rain = 0
KAD1 090857Z 19010KT 19/14 A3028 RMK A01 T01860144  RH  076%=      5-min Rain = 0
KAD1 090858Z 19010KT 19/14 A3028 RMK A01 T01860144  RH  077%=      5-min Rain = 0
KAD1 090859Z 19010KT 19/14 A3028 RMK A01 T01860144  RH  076%=      5-min Rain = 0
KAD1 090900Z 19010KT 19/15 A3028 RMK A01 T01880145  RH  076%=      5-min Rain = 0
KAD1 090901Z 19009KT 19/15 A3028 RMK A01 T01890145  RH  076%=      5-min Rain = 0
KAD1 090902Z 19009KT 19/15 A3028 RMK A01 T01890145  RH  075%=      5-min Rain = 0
KAD1 090903Z 19009KT 19/15 A3028 RMK A01 T01900145  RH  075%=      5-min Rain = 0
KAD1 090904Z 19009KT 19/15 A3029 RMK A01 T01900145  RH  075%=      5-min Rain = 0
KAD1 090905Z 19010KT 19/15 A3029 RMK A01 T01890145  RH  075%=      5-min Rain = 0
KAD1 090906Z 19009KT 19/15 A3029 RMK A01 T01890145  RH  075%=      5-min Rain = 0
KAD1 090907Z 19009KT 19/14 A3029 RMK A01 T01890144  RH  076%=      5-min Rain = 0
KAD1 090908Z 19010KT 19/14 A3029 RMK A01 T01880144  RH  076%=      5-min Rain = 0
KAD1 090909Z 19010KT 19/14 A3029 RMK A01 T01870144  RH  076%=      5-min Rain = 0
KAD1 090910Z 19010KT 19/14 A3029 RMK A01 T01870144  RH  076%=      5-min Rain = 0
KAD1 090911Z 19010KT 19/14 A3029 RMK A01 T01870144  RH  076%=      5-min Rain = 0
KAD1 090912Z 19010KT 19/14 A3029 RMK A01 T01880144  RH  076%=      5-min Rain = 0
KAD1 090913Z 20010KT 19/14 A3029 RMK A01 T01880144  RH  076%=      5-min Rain = 0
KAD1 090914Z 19009KT 19/14 A3029 RMK A01 T01880144  RH  075%=      5-min Rain = 0
KAD1 090915Z 20010KT 19/14 A3029 RMK A01 T01880144  RH  075%=      5-min Rain = 0
KAD1 090916Z 20010KT 19/14 A3029 RMK A01 T01890144  RH  075%=      5-min Rain = 0
KAD1 090917Z 19010KT 19/14 A3029 RMK A01 T01890144  RH  075%=      5-min Rain = 0
KAD1 090918Z 19009KT 19/14 A3029 RMK A01 T01890144  RH  075%=      5-min Rain = 0
KAD1 090919Z 19009KT 19/14 A3029 RMK A01 T01890144  RH  075%=      5-min Rain = 0
KAD1 090920Z 19009KT 19/14 A3029 RMK A01 T01880144  RH  075%=      5-min Rain = 0
KAD1 090921Z 19009KT 19/14 A3029 RMK A01 T01880144  RH  076%=      5-min Rain = 0
KAD1 090922Z 20009KT 19/14 A3029 RMK A01 T01870144  RH  076%=      5-min Rain = 0
KAD1 090923Z 20009KT 19/14 A3029 RMK A01 T01870143  RH  076%=      5-min Rain = 0
KAD1 090924Z 20009KT 19/14 A3029 RMK A01 T01860144  RH  076%=      5-min Rain = 0
KAD1 090925Z 20009KT 19/14 A3029 RMK A01 T01860143  RH  076%=      5-min Rain = 0
KAD1 090926Z 20010KT 19/14 A3029 RMK A01 T01850143  RH  077%=      5-min Rain = 0
KAD1 090927Z 20010KT 19/14 A3029 RMK A01 T01850143  RH  077%=      5-min Rain = 0
KAD1 090928Z 20010KT 19/14 A3029 RMK A01 T01850144  RH  077%=      5-min Rain = 0
KAD1 090929Z 20010KT 18/14 A3029 RMK A01 T01840143  RH  077%=      5-min Rain = 0
KAD1 090930Z 20010KT 19/14 A3029 RMK A01 T01850144  RH  077%=      5-min Rain = 0
KAD1 090931Z 20010KT 19/14 A3029 RMK A01 T01850143  RH  077%=      5-min Rain = 0
KAD1 090932Z 20010KT 19/14 A3029 RMK A01 T01850143  RH  077%=      5-min Rain = 0
KAD1 090933Z 20010KT 18/14 A3029 RMK A01 T01840143  RH  077%=      5-min Rain = 0
KAD1 090934Z 20010KT 19/14 A3029 RMK A01 T01850143  RH  077%=      5-min Rain = 0
KAD1 090935Z 20009KT 19/14 A3029 RMK A01 T01850143  RH  076%=      5-min Rain = 0
KAD1 090936Z 20009KT 19/14 A3029 RMK A01 T01850143  RH  076%=      5-min Rain = 0
KAD1 090937Z 20009KT 19/14 A3029 RMK A01 T01850143  RH  077%=      5-min Rain = 0
KAD1 090938Z 20008KT 19/14 A3029 RMK A01 T01850143  RH  077%=      5-min Rain = 0
KAD1 090939Z 20009KT 18/14 A3029 RMK A01 T01840143  RH  077%=      5-min Rain = 0
KAD1 090940Z 20008KT 18/14 A3029 RMK A01 T01830142  RH  077%=      5-min Rain = 0
KAD1 090941Z 20008KT 18/14 A3029 RMK A01 T01830143  RH  077%=      5-min Rain = 0
KAD1 090942Z 20008KT 18/14 A3029 RMK A01 T01820143  RH  077%=      5-min Rain = 0
KAD1 090943Z 20008KT 18/14 A3029 RMK A01 T01820142  RH  078%=      5-min Rain = 0
KAD1 090944Z 20008KT 18/14 A3029 RMK A01 T01820143  RH  078%=      5-min Rain = 0
KAD1 090945Z 20008KT 18/14 A3029 RMK A01 T01810143  RH  078%=      5-min Rain = 0
KAD1 090946Z 20007KT 18/14 A3029 RMK A01 T01810143  RH  078%=      5-min Rain = 0
KAD1 090947Z 20007KT 18/14 A3029 RMK A01 T01810143  RH  078%=      5-min Rain = 0
KAD1 090948Z 20008KT 18/14 A3029 RMK A01 T01810143  RH  079%=      5-min Rain = 0
KAD1 090949Z 20008KT 18/14 A3029 RMK A01 T01800143  RH  079%=      5-min Rain = 0
KAD1 090950Z 20008KT 18/14 A3029 RMK A01 T01800143  RH  079%=      5-min Rain = 0
KAD1 090951Z 20008KT 18/14 A3029 RMK A01 T01800143  RH  079%=      5-min Rain = 0
KAD1 090952Z 20009KT 18/14 A3029 RMK A01 T01790143  RH  079%=      5-min Rain = 0
KAD1 090953Z 20008KT 18/14 A3029 RMK A01 T01790143  RH  080%=      5-min Rain = 0
KAD1 090954Z 20009KT 18/14 A3029 RMK A01 T01790143  RH  080%=      5-min Rain = 0
KAD1 090955Z 20009KT 18/14 A3029 RMK A01 T01790143  RH  080%=      5-min Rain = 0
KAD1 090956Z 20010KT 18/14 A3029 RMK A01 T01790144  RH  080%=      5-min Rain = 0
KAD1 090957Z 20009KT 18/14 A3029 RMK A01 T01790144  RH  080%=      5-min Rain = 0
KAD1 090958Z 20009KT 18/14 A3029 RMK A01 T01800144  RH  079%=      5-min Rain = 0
KAD1 090959Z 20009KT 18/14 A3029 RMK A01 T01800144  RH  079%=      5-min Rain = 0
KAD1 091000Z 20009KT 18/14 A3029 RMK A01 T01810144  RH  079%=      5-min Rain = 0
KAD1 091001Z 20009KT 18/14 A3029 RMK A01 T01810144  RH  079%=      5-min Rain = 0
KAD1 091002Z 20009KT 18/14 A3029 RMK A01 T01800144  RH  079%=      5-min Rain = 0
KAD1 091003Z 20009KT 18/14 A3029 RMK A01 T01800144  RH  079%=      5-min Rain = 0
KAD1 091004Z 20008KT 18/14 A3029 RMK A01 T01800144  RH  079%=      5-min Rain = 0
KAD1 091005Z 20008KT 18/14 A3029 RMK A01 T01800144  RH  079%=      5-min Rain = 0
KAD1 091006Z 20008KT 18/14 A3029 RMK A01 T01790144  RH  080%=      5-min Rain = 0
KAD1 091007Z 20008KT 18/14 A303 RMK A01 T01780143  RH  080%=      5-min Rain = 0
KAD1 091008Z 20008KT 18/14 A303 RMK A01 T01780143  RH  080%=      5-min Rain = 0
KAD1 091009Z 20008KT 18/14 A303 RMK A01 T01770143  RH  080%=      5-min Rain = 0
KAD1 091010Z 20008KT 18/14 A303 RMK A01 T01770143  RH  081%=      5-min Rain = 0
KAD1 091011Z 20008KT 18/14 A303 RMK A01 T01760143  RH  081%=      5-min Rain = 0
KAD1 091012Z 20008KT 18/14 A303 RMK A01 T01750142  RH  081%=      5-min Rain = 0
KAD1 091013Z 20008KT 18/14 A303 RMK A01 T01750142  RH  081%=      5-min Rain = 0
KAD1 091014Z 20008KT 17/14 A303 RMK A01 T01740142  RH  081%=      5-min Rain = 0
KAD1 091015Z 20008KT 17/14 A303 RMK A01 T01730141  RH  082%=      5-min Rain = 0
KAD1 091016Z 20008KT 17/14 A303 RMK A01 T01730141  RH  082%=      5-min Rain = 0
KAD1 091017Z 20008KT 17/14 A303 RMK A01 T01720141  RH  082%=      5-min Rain = 0
KAD1 091018Z 20008KT 17/14 A303 RMK A01 T01720141  RH  082%=      5-min Rain = 0
KAD1 091019Z 20008KT 17/14 A303 RMK A01 T01710141  RH  082%=      5-min Rain = 0
KAD1 091020Z 20009KT 17/14 A303 RMK A01 T01710141  RH  083%=      5-min Rain = 0
KAD1 091021Z 20009KT 17/14 A303 RMK A01 T01710142  RH  083%=      5-min Rain = 0
KAD1 091022Z 20009KT 17/14 A303 RMK A01 T01710142  RH  083%=      5-min Rain = 0
KAD1 091023Z 20009KT 17/14 A303 RMK A01 T01710142  RH  083%=      5-min Rain = 0
KAD1 091024Z 20008KT 17/14 A303 RMK A01 T01710142  RH  083%=      5-min Rain = 0
KAD1 091025Z 20008KT 17/14 A303 RMK A01 T01720142  RH  082%=      5-min Rain = 0
KAD1 091026Z 20008KT 17/14 A303 RMK A01 T01720142  RH  082%=      5-min Rain = 0
KAD1 091027Z 20008KT 17/14 A303 RMK A01 T01730142  RH  082%=      5-min Rain = 0
KAD1 091028Z 20008KT 17/14 A303 RMK A01 T01730142  RH  082%=      5-min Rain = 0
KAD1 091029Z 20008KT 17/14 A303 RMK A01 T01730142  RH  082%=      5-min Rain = 0
KAD1 091030Z 20008KT 17/14 A303 RMK A01 T01730142  RH  082%=      5-min Rain = 0
KAD1 091031Z 20008KT 17/14 A303 RMK A01 T01730142  RH  082%=      5-min Rain = 0
KAD1 091032Z 20008KT 17/14 A303 RMK A01 T01730142  RH  082%=      5-min Rain = 0
KAD1 091033Z 20008KT 17/14 A303 RMK A01 T01730142  RH  082%=      5-min Rain = 0
KAD1 091034Z 20008KT 17/14 A303 RMK A01 T01730142  RH  082%=      5-min Rain = 0
KAD1 091035Z 20008KT 17/14 A303 RMK A01 T01720142  RH  082%=      5-min Rain = 0
KAD1 091036Z 20008KT 17/14 A303 RMK A01 T01720141  RH  082%=      5-min Rain = 0
KAD1 091037Z 20008KT 17/14 A303 RMK A01 T01710141  RH  083%=      5-min Rain = 0
KAD1 091038Z 20008KT 17/14 A3031 RMK A01 T01710141  RH  083%=      5-min Rain = 0
KAD1 091039Z 20007KT 17/14 A3031 RMK A01 T01700141  RH  083%=      5-min Rain = 0
KAD1 091040Z 20007KT 17/14 A3031 RMK A01 T01690140  RH  083%=      5-min Rain = 0
KAD1 091041Z 20007KT 17/14 A3031 RMK A01 T01690140  RH  083%=      5-min Rain = 0
KAD1 091042Z 20007KT 17/14 A3031 RMK A01 T01690140  RH  083%=      5-min Rain = 0
KAD1 091043Z 21008KT 17/14 A3031 RMK A01 T01680140  RH  084%=      5-min Rain = 0
KAD1 091044Z 20007KT 17/14 A3031 RMK A01 T01680140  RH  084%=      5-min Rain = 0
KAD1 091045Z 21008KT 17/14 A3031 RMK A01 T01680140  RH  084%=      5-min Rain = 0
KAD1 091046Z 21008KT 17/14 A3031 RMK A01 T01680140  RH  084%=      5-min Rain = 0
KAD1 091047Z 21008KT 17/14 A3031 RMK A01 T01680141  RH  084%=      5-min Rain = 0
KAD1 091048Z 21008KT 17/14 A3031 RMK A01 T01680141  RH  084%=      5-min Rain = 0
KAD1 091049Z 21008KT 17/14 A3031 RMK A01 T01680141  RH  084%=      5-min Rain = 0
KAD1 091050Z 21008KT 17/14 A3031 RMK A01 T01680141  RH  084%=      5-min Rain = 0
KAD1 091051Z 21008KT 17/14 A3031 RMK A01 T01690141  RH  084%=      5-min Rain = 0
KAD1 091052Z 21008KT 17/14 A3031 RMK A01 T01690141  RH  084%=      5-min Rain = 0
KAD1 091053Z 21008KT 17/14 A3031 RMK A01 T01690141  RH  084%=      5-min Rain = 0
KAD1 091054Z 21009KT 17/14 A3031 RMK A01 T01690141  RH  084%=      5-min Rain = 0
KAD1 091055Z 21009KT 17/14 A3031 RMK A01 T01700142  RH  084%=      5-min Rain = 0
KAD1 091056Z 21009KT 17/14 A3031 RMK A01 T01700142  RH  083%=      5-min Rain = 0
KAD1 091057Z 21009KT 17/14 A3031 RMK A01 T01710142  RH  083%=      5-min Rain = 0
KAD1 091058Z 21009KT 17/14 A3031 RMK A01 T01710142  RH  083%=      5-min Rain = 0
KAD1 091059Z 21009KT 17/14 A3031 RMK A01 T01720142  RH  083%=      5-min Rain = 0
KAD1 091100Z 21009KT 17/14 A303 RMK A01 T01730143  RH  082%=      5-min Rain = 0
KAD1 091101Z 21010KT 17/14 A303 RMK A01 T01730143  RH  082%=      5-min Rain = 0
KAD1 091102Z 21009KT 17/14 A303 RMK A01 T01730143  RH  082%=      5-min Rain = 0
KAD1 091103Z 20009KT 17/14 A303 RMK A01 T01730142  RH  082%=      5-min Rain = 0
KAD1 091104Z 20010KT 17/14 A303 RMK A01 T01730142  RH  082%=      5-min Rain = 0
KAD1 091105Z 20010KT 17/14 A303 RMK A01 T01730142  RH  082%=      5-min Rain = 0
KAD1 091106Z 20010KT 17/14 A303 RMK A01 T01740142  RH  082%=      5-min Rain = 0
KAD1 091107Z 20010KT 17/14 A303 RMK A01 T01740143  RH  082%=      5-min Rain = 0
KAD1 091108Z 20010KT 17/14 A3031 RMK A01 T01740142  RH  082%=      5-min Rain = 0
KAD1 091109Z 20010KT 17/14 A3031 RMK A01 T01740143  RH  082%=      5-min Rain = 0
KAD1 091110Z 20010KT 17/14 A3031 RMK A01 T01740142  RH  082%=      5-min Rain = 0
KAD1 091111Z 20009KT 17/14 A3031 RMK A01 T01740142  RH  082%=      5-min Rain = 0
KAD1 091112Z 20009KT 18/14 A3031 RMK A01 T01750143  RH  082%=      5-min Rain = 0
KAD1 091113Z 20010KT 18/14 A3031 RMK A01 T01750143  RH  081%=      5-min Rain = 0
KAD1 091114Z 20010KT 18/14 A3031 RMK A01 T01750143  RH  081%=      5-min Rain = 0
KAD1 091115Z 20010KT 18/14 A3031 RMK A01 T01750143  RH  081%=      5-min Rain = 0
KAD1 091116Z 20010KT 18/14 A3031 RMK A01 T01760143  RH  081%=      5-min Rain = 0
KAD1 091117Z 20010KT 18/14 A3031 RMK A01 T01760143  RH  081%=      5-min Rain = 0
KAD1 091118Z 20010KT 18/14 A3031 RMK A01 T01770144  RH  081%=      5-min Rain = 0
KAD1 091119Z 20010KT 18/14 A3031 RMK A01 T01760143  RH  081%=      5-min Rain = 0
KAD1 091120Z 19011KT 18/14 A3031 RMK A01 T01760144  RH  081%=      5-min Rain = 0
KAD1 091121Z 19010KT 18/14 A3031 RMK A01 T01760143  RH  081%=      5-min Rain = 0
KAD1 091122Z 19010KT 18/14 A3031 RMK A01 T01760143  RH  081%=      5-min Rain = 0
KAD1 091123Z 19010KT 18/14 A3031 RMK A01 T01750142  RH  081%=      5-min Rain = 0
KAD1 091124Z 19010KT 17/14 A3031 RMK A01 T01740142  RH  081%=      5-min Rain = 0
KAD1 091125Z 19010KT 17/14 A3031 RMK A01 T01740142  RH  081%=      5-min Rain = 0
KAD1 091126Z 19010KT 17/14 A3031 RMK A01 T01730141  RH  081%=      5-min Rain = 0
KAD1 091127Z 19010KT 17/14 A3031 RMK A01 T01730141  RH  081%=      5-min Rain = 0
KAD1 091128Z 19010KT 17/14 A3031 RMK A01 T01730141  RH  082%=      5-min Rain = 0
KAD1 091129Z 19010KT 17/14 A3031 RMK A01 T01730141  RH  082%=      5-min Rain = 0
KAD1 091130Z 19010KT 17/14 A3031 RMK A01 T01730142  RH  082%=      5-min Rain = 0
KAD1 091131Z 19010KT 17/14 A3031 RMK A01 T01740142  RH  082%=      5-min Rain = 0
KAD1 091132Z 19010KT 18/14 A3031 RMK A01 T01750142  RH  081%=      5-min Rain = 0
KAD1 091133Z 19010KT 18/14 A3031 RMK A01 T01750143  RH  081%=      5-min Rain = 0
KAD1 091134Z 19011KT 17/14 A3031 RMK A01 T01740142  RH  081%=      5-min Rain = 0
KAD1 091135Z 19011KT 17/14 A3031 RMK A01 T01740142  RH  081%=      5-min Rain = 0
KAD1 091136Z 19011KT 17/14 A3031 RMK A01 T01740142  RH  081%=      5-min Rain = 0
KAD1 091137Z 19011KT 17/14 A3031 RMK A01 T01740142  RH  081%=      5-min Rain = 0
KAD1 091138Z 19011KT 17/14 A3031 RMK A01 T01730142  RH  082%=      5-min Rain = 0
KAD1 091139Z 19011KT 17/14 A3032 RMK A01 T01730142  RH  082%=      5-min Rain = 0
KAD1 091140Z 19011KT 17/14 A3032 RMK A01 T01730141  RH  082%=      5-min Rain = 0
KAD1 091141Z 19011KT 17/14 A3032 RMK A01 T01730142  RH  082%=      5-min Rain = 0
KAD1 091142Z 19011KT 17/14 A3032 RMK A01 T01730141  RH  082%=      5-min Rain = 0
KAD1 091143Z 19011KT 17/14 A3032 RMK A01 T01730142  RH  082%=      5-min Rain = 0
KAD1 091144Z 19010KT 17/14 A3032 RMK A01 T01720142  RH  082%=      5-min Rain = 0
KAD1 091145Z 19010KT 17/14 A3032 RMK A01 T01720142  RH  082%=      5-min Rain = 0
KAD1 091146Z 19011KT 17/14 A3032 RMK A01 T01720142  RH  082%=      5-min Rain = 0
KAD1 091147Z 19010KT 17/14 A3032 RMK A01 T01730142  RH  082%=      5-min Rain = 0
KAD1 091148Z 19010KT 17/14 A3032 RMK A01 T01730142  RH  082%=      5-min Rain = 0
KAD1 091149Z 19010KT 17/14 A3032 RMK A01 T01730142  RH  082%=      5-min Rain = 0
KAD1 091150Z 19010KT 17/14 A3032 RMK A01 T01730142  RH  082%=      5-min Rain = 0
KAD1 091151Z 19010KT 17/14 A3032 RMK A01 T01730142  RH  082%=      5-min Rain = 0
KAD1 091152Z 19010KT 17/14 A3032 RMK A01 T01730142  RH  082%=      5-min Rain = 0
KAD1 091153Z 19010KT 17/14 A3032 RMK A01 T01720142  RH  082%=      5-min Rain = 0
KAD1 091154Z 19010KT 17/14 A3032 RMK A01 T01730142  RH  082%=      5-min Rain = 0
KAD1 091155Z 19010KT 17/14 A3032 RMK A01 T01730143  RH  082%=      5-min Rain = 0
KAD1 091156Z 19010KT 17/14 A3032 RMK A01 T01730142  RH  082%=      5-min Rain = 0
KAD1 091157Z 19010KT 17/14 A3032 RMK A01 T01740143  RH  082%=      5-min Rain = 0
KAD1 091158Z 19010KT 17/14 A3032 RMK A01 T01740143  RH  082%=      5-min Rain = 0
KAD1 091159Z 19010KT 17/14 A3032 RMK A01 T01740143  RH  082%=      5-min Rain = 0
KAD1 091200Z 19010KT 17/14 A3032 RMK A01 T01730143  RH  082%=      5-min Rain = 0
KAD1 091201Z 19010KT 17/14 A3032 RMK A01 T01740143  RH  082%=      5-min Rain = 0
KAD1 091202Z 19010KT 17/14 A3032 RMK A01 T01730143  RH  082%=      5-min Rain = 0
KAD1 091203Z 19010KT 17/14 A3032 RMK A01 T01730143  RH  082%=      5-min Rain = 0
KAD1 091204Z 19010KT 17/14 A3032 RMK A01 T01730143  RH  082%=      5-min Rain = 0
KAD1 091205Z 19010KT 17/14 A3032 RMK A01 T01730143  RH  082%=      5-min Rain = 0
KAD1 091206Z 19010KT 17/14 A3032 RMK A01 T01730143  RH  082%=      5-min Rain = 0
KAD1 091207Z 19010KT 17/14 A3033 RMK A01 T01730143  RH  082%=      5-min Rain = 0
KAD1 091208Z 19010KT 17/14 A3033 RMK A01 T01730143  RH  082%=      5-min Rain = 0
KAD1 091209Z 19009KT 17/14 A3033 RMK A01 T01740144  RH  082%=      5-min Rain = 0
KAD1 091210Z 20010KT 17/14 A3033 RMK A01 T01740143  RH  082%=      5-min Rain = 0
KAD1 091211Z 20009KT 17/14 A3033 RMK A01 T01740143  RH  082%=      5-min Rain = 0
KAD1 091212Z 20009KT 18/14 A3033 RMK A01 T01750144  RH  082%=      5-min Rain = 0
KAD1 091213Z 20009KT 18/14 A3033 RMK A01 T01750144  RH  082%=      5-min Rain = 0
KAD1 091214Z 20009KT 18/14 A3033 RMK A01 T01750144  RH  082%=      5-min Rain = 0
KAD1 091215Z 20008KT 18/14 A3033 RMK A01 T01750144  RH  082%=      5-min Rain = 0
KAD1 091216Z 20008KT 18/15 A3033 RMK A01 T01750145  RH  082%=      5-min Rain = 0
KAD1 091217Z 20008KT 18/15 A3033 RMK A01 T01750145  RH  082%=      5-min Rain = 0
KAD1 091218Z 20008KT 18/15 A3033 RMK A01 T01750145  RH  083%=      5-min Rain = 0
KAD1 091219Z 20008KT 17/14 A3033 RMK A01 T01740144  RH  082%=      5-min Rain = 0
KAD1 091220Z 20007KT 18/14 A3033 RMK A01 T01750144  RH  082%=      5-min Rain = 0
KAD1 091221Z 21007KT 18/15 A3033 RMK A01 T01750145  RH  083%=      5-min Rain = 0
KAD1 091222Z 21007KT 18/15 A3033 RMK A01 T01750145  RH  083%=      5-min Rain = 0
KAD1 091223Z 21007KT 18/15 A3033 RMK A01 T01750145  RH  083%=      5-min Rain = 0
KAD1 091224Z 20007KT 18/15 A3033 RMK A01 T01750145  RH  083%=      5-min Rain = 0
KAD1 091225Z 20007KT 18/15 A3033 RMK A01 T01760145  RH  082%=      5-min Rain = 0
KAD1 091226Z 20007KT 18/15 A3033 RMK A01 T01760146  RH  082%=      5-min Rain = 0
KAD1 091227Z 20007KT 18/15 A3033 RMK A01 T01770146  RH  082%=      5-min Rain = 0
KAD1 091228Z 20007KT 18/15 A3033 RMK A01 T01770146  RH  082%=      5-min Rain = 0
KAD1 091229Z 20008KT 18/15 A3033 RMK A01 T01770146  RH  082%=      5-min Rain = 0
KAD1 091230Z 20008KT 18/15 A3033 RMK A01 T01770146  RH  082%=      5-min Rain = 0
KAD1 091231Z 20007KT 18/15 A3033 RMK A01 T01770146  RH  082%=      5-min Rain = 0
KAD1 091232Z 20008KT 18/15 A3033 RMK A01 T01780146  RH  081%=      5-min Rain = 0
KAD1 091233Z 20008KT 18/15 A3033 RMK A01 T01780145  RH  081%=      5-min Rain = 0
KAD1 091234Z 20007KT 18/15 A3033 RMK A01 T01780146  RH  081%=      5-min Rain = 0
KAD1 091235Z 20008KT 18/15 A3033 RMK A01 T01790146  RH  081%=      5-min Rain = 0
KAD1 091236Z 20007KT 18/15 A3033 RMK A01 T01790145  RH  081%=      5-min Rain = 0
KAD1 091237Z 19007KT 18/15 A3033 RMK A01 T01790146  RH  081%=      5-min Rain = 0
KAD1 091238Z 20008KT 18/15 A3033 RMK A01 T01790146  RH  081%=      5-min Rain = 0
KAD1 091239Z 19007KT 18/15 A3033 RMK A01 T01800146  RH  081%=      5-min Rain = 0
KAD1 091240Z 19007KT 18/15 A3033 RMK A01 T01810147  RH  080%=      5-min Rain = 0
KAD1 091241Z 19007KT 18/15 A3033 RMK A01 T01820147  RH  080%=      5-min Rain = 0
KAD1 091242Z 20007KT 18/15 A3033 RMK A01 T01830148  RH  080%=      5-min Rain = 0
KAD1 091243Z 19007KT 18/15 A3034 RMK A01 T01840148  RH  080%=      5-min Rain = 0
KAD1 091244Z 20007KT 18/15 A3034 RMK A01 T01840148  RH  079%=      5-min Rain = 0
KAD1 091245Z 19007KT 19/15 A3034 RMK A01 T01850148  RH  079%=      5-min Rain = 0
KAD1 091246Z 19008KT 19/15 A3034 RMK A01 T01860149  RH  079%=      5-min Rain = 0
KAD1 091247Z 19008KT 19/15 A3034 RMK A01 T01870149  RH  078%=      5-min Rain = 0
KAD1 091248Z 19008KT 19/15 A3034 RMK A01 T01890150  RH  078%=      5-min Rain = 0
KAD1 091249Z 19008KT 19/15 A3034 RMK A01 T01900150  RH  078%=      5-min Rain = 0
KAD1 091250Z 19008KT 19/15 A3034 RMK A01 T01900150  RH  077%=      5-min Rain = 0
KAD1 091251Z 19008KT 19/15 A3034 RMK A01 T01910150  RH  077%=      5-min Rain = 0
KAD1 091252Z 19008KT 19/15 A3034 RMK A01 T01920150  RH  077%=      5-min Rain = 0
KAD1 091253Z 19008KT 19/15 A3034 RMK A01 T01930150  RH  076%=      5-min Rain = 0
KAD1 091254Z 19007KT 19/15 A3034 RMK A01 T01930151  RH  076%=      5-min Rain = 0
KAD1 091255Z 19008KT 19/15 A3034 RMK A01 T01940152  RH  076%=      5-min Rain = 0
KAD1 091256Z 19008KT 20/15 A3034 RMK A01 T01950151  RH  076%=      5-min Rain = 0
KAD1 091257Z 19008KT 20/15 A3034 RMK A01 T01960152  RH  075%=      5-min Rain = 0
KAD1 091258Z 19008KT 20/15 A3034 RMK A01 T01970151  RH  075%=      5-min Rain = 0
KAD1 091259Z 19008KT 20/15 A3034 RMK A01 T01980152  RH  075%=      5-min Rain = 0
KAD1 091300Z 19008KT 20/15 A3034 RMK A01 T01980152  RH  074%=      5-min Rain = 0
KAD1 091301Z 19008KT 20/15 A3034 RMK A01 T01990152  RH  074%=      5-min Rain = 0
KAD1 091302Z 19009KT 20/15 A3034 RMK A01 T02000152  RH  074%=      5-min Rain = 0
KAD1 091303Z 19007KT 20/15 A3034 RMK A01 T02010152  RH  074%=      5-min Rain = 0
KAD1 091304Z 19008KT 20/15 A3034 RMK A01 T02010153  RH  074%=      5-min Rain = 0
KAD1 091305Z 19008KT 20/15 A3034 RMK A01 T02020152  RH  073%=      5-min Rain = 0
KAD1 091306Z 19009KT 20/15 A3034 RMK A01 T02030152  RH  072%=      5-min Rain = 0
KAD1 091307Z 19008KT 20/15 A3034 RMK A01 T02030152  RH  073%=      5-min Rain = 0
KAD1 091308Z 19008KT 20/15 A3035 RMK A01 T02040152  RH  072%=      5-min Rain = 0
KAD1 091309Z 19010KT 20/15 A3035 RMK A01 T02040152  RH  072%=      5-min Rain = 0
KAD1 091310Z 19009KT 20/15 A3035 RMK A01 T02040152  RH  072%=      5-min Rain = 0
KAD1 091311Z 18009KT 20/15 A3035 RMK A01 T02040152  RH  072%=      5-min Rain = 0
KAD1 091312Z 18009KT 21/15 A3035 RMK A01 T02050153  RH  072%=      5-min Rain = 0
KAD1 091313Z 18009KT 21/15 A3035 RMK A01 T02060154  RH  072%=      5-min Rain = 0
KAD1 091314Z 18010KT 21/15 A3035 RMK A01 T02060153  RH  071%=      5-min Rain = 0
KAD1 091315Z 18010KT 21/15 A3035 RMK A01 T02060153  RH  072%=      5-min Rain = 0
KAD1 091316Z 19008KT 21/15 A3035 RMK A01 T02060154  RH  072%=      5-min Rain = 0
KAD1 091317Z 18009KT 21/15 A3035 RMK A01 T02070154  RH  072%=      5-min Rain = 0
KAD1 091318Z 19010KT 21/15 A3035 RMK A01 T02070153  RH  071%=      5-min Rain = 0
KAD1 091319Z 19010KT 21/15 A3035 RMK A01 T02080154  RH  071%=      5-min Rain = 0
KAD1 091320Z 19010KT 21/15 A3035 RMK A01 T02080153  RH  071%=      5-min Rain = 0
KAD1 091321Z 19011KT 21/15 A3034 RMK A01 T02090153  RH  070%=      5-min Rain = 0
KAD1 091322Z 19009KT 21/15 A3034 RMK A01 T02090153  RH  070%=      5-min Rain = 0
KAD1 091323Z 19010KT 21/15 A3034 RMK A01 T02090153  RH  071%=      5-min Rain = 0
KAD1 091324Z 19010KT 21/15 A3035 RMK A01 T02090154  RH  071%=      5-min Rain = 0
KAD1 091325Z 19009KT 21/15 A3035 RMK A01 T02100153  RH  070%=      5-min Rain = 0
KAD1 091326Z 19011KT 21/15 A3035 RMK A01 T02110154  RH  070%=      5-min Rain = 0
KAD1 091327Z 18010KT 21/15 A3035 RMK A01 T02120154  RH  069%=      5-min Rain = 0
KAD1 091328Z 18010KT 21/15 A3035 RMK A01 T02120154  RH  069%=      5-min Rain = 0
KAD1 091329Z 19010KT 21/15 A3035 RMK A01 T02120154  RH  069%=      5-min Rain = 0
KAD1 091330Z 19009KT 21/15 A3035 RMK A01 T02120153  RH  069%=      5-min Rain = 0
KAD1 091331Z 18010KT 21/16 A3035 RMK A01 T02130155  RH  069%=      5-min Rain = 0
KAD1 091332Z 18011KT 21/15 A3035 RMK A01 T02130154  RH  069%=      5-min Rain = 0
KAD1 091333Z 18011KT 21/15 A3035 RMK A01 T02140154  RH  069%=      5-min Rain = 0
KAD1 091334Z 18009KT 21/15 A3035 RMK A01 T02140154  RH  069%=      5-min Rain = 0
KAD1 091335Z 19008KT 22/16 A3035 RMK A01 T02150155  RH  069%=      5-min Rain = 0
KAD1 091336Z 19009KT 22/16 A3035 RMK A01 T02160156  RH  068%=      5-min Rain = 0
KAD1 091337Z 18009KT 22/16 A3035 RMK A01 T02170155  RH  068%=      5-min Rain = 0
KAD1 091338Z 18009KT 22/16 A3035 RMK A01 T02180155  RH  067%=      5-min Rain = 0
KAD1 091339Z 18009KT 22/16 A3035 RMK A01 T02190156  RH  068%=      5-min Rain = 0
KAD1 091340Z 18009KT 22/16 A3035 RMK A01 T02190156  RH  067%=      5-min Rain = 0
KAD1 091341Z 19009KT 22/16 A3035 RMK A01 T02200156  RH  067%=      5-min Rain = 0
KAD1 091342Z 19010KT 22/16 A3035 RMK A01 T02220156  RH  066%=      5-min Rain = 0
KAD1 091343Z 19010KT 22/16 A3035 RMK A01 T02220155  RH  066%=      5-min Rain = 0
KAD1 091344Z 19010KT 22/15 A3035 RMK A01 T02220154  RH  066%=      5-min Rain = 0
KAD1 091345Z 19009KT 22/15 A3035 RMK A01 T02220154  RH  065%=      5-min Rain = 0
KAD1 091346Z 19011KT 22/15 A3035 RMK A01 T02220154  RH  065%=      5-min Rain = 0
KAD1 091347Z 19010KT 22/15 A3035 RMK A01 T02220154  RH  065%=      5-min Rain = 0
KAD1 091348Z 19010KT 22/16 A3035 RMK A01 T02220155  RH  066%=      5-min Rain = 0
KAD1 091349Z 19009KT 22/15 A3035 RMK A01 T02230154  RH  065%=      5-min Rain = 0
KAD1 091350Z 19011KT 22/15 A3035 RMK A01 T02230153  RH  064%=      5-min Rain = 0
KAD1 091351Z 19010KT 22/15 A3035 RMK A01 T02230153  RH  064%=      5-min Rain = 0
KAD1 091352Z 19011KT 22/15 A3035 RMK A01 T02240152  RH  064%=      5-min Rain = 0
KAD1 091353Z 19010KT 22/15 A3035 RMK A01 T02240152  RH  064%=      5-min Rain = 0
KAD1 091354Z 20010KT 22/15 A3035 RMK A01 T02240152  RH  064%=      5-min Rain = 0
KAD1 091355Z 19008KT 23/15 A3035 RMK A01 T02250154  RH  064%=      5-min Rain = 0
KAD1 091356Z 19009KT 23/15 A3035 RMK A01 T02270154  RH  063%=      5-min Rain = 0
KAD1 091357Z 19009KT 23/15 A3035 RMK A01 T02270153  RH  063%=      5-min Rain = 0
KAD1 091358Z 20010KT 23/15 A3035 RMK A01 T02260153  RH  063%=      5-min Rain = 0
KAD1 091359Z 19010KT 23/15 A3035 RMK A01 T02270152  RH  062%=      5-min Rain = 0
KAD1 091400Z 19010KT 23/15 A3035 RMK A01 T02280153  RH  063%=      5-min Rain = 0
KAD1 091401Z 19010KT 23/16 A3035 RMK A01 T02310155  RH  062%=      5-min Rain = 0
KAD1 091402Z 19009KT 23/15 A3035 RMK A01 T02310152  RH  061%=      5-min Rain = 0
KAD1 091403Z 20010KT 23/15 A3035 RMK A01 T02300153  RH  062%=      5-min Rain = 0
KAD1 091404Z 20010KT 23/15 A3035 RMK A01 T02300149  RH  060%=      5-min Rain = 0
KAD1 091405Z 19012KT 23/15 A3035 RMK A01 T02300150  RH  060%=      5-min Rain = 0
KAD1 091406Z 20009KT 23/15 A3035 RMK A01 T02290150  RH  061%=      5-min Rain = 0
KAD1 091407Z 21010KT 23/15 A3035 RMK A01 T02300152  RH  061%=      5-min Rain = 0
KAD1 091408Z 21010KT 23/15 A3035 RMK A01 T02320152  RH  061%=      5-min Rain = 0
KAD1 091409Z 19009KT 23/15 A3035 RMK A01 T02320152  RH  060%=      5-min Rain = 0
KAD1 091410Z 18009KT 23/15 A3035 RMK A01 T02320152  RH  061%=      5-min Rain = 0
KAD1 091411Z 18009KT 23/15 A3035 RMK A01 T02330152  RH  060%=      5-min Rain = 0
KAD1 091412Z 18009KT 23/15 A3035 RMK A01 T02330153  RH  061%=      5-min Rain = 0
KAD1 091413Z 18007KT 23/15 A3035 RMK A01 T02330151  RH  060%=      5-min Rain = 0
KAD1 091414Z 20009KT 23/15 A3036 RMK A01 T02340151  RH  060%=      5-min Rain = 0
KAD1 091415Z 20009KT 24/15 A3036 RMK A01 T02370150  RH  058%=      5-min Rain = 0
KAD1 091416Z 19008KT 24/15 A3036 RMK A01 T02370151  RH  059%=      5-min Rain = 0
KAD1 091417Z 20009KT 24/15 A3036 RMK A01 T02370151  RH  058%=      5-min Rain = 0
KAD1 091418Z 20008KT 24/15 A3036 RMK A01 T02350150  RH  059%=      5-min Rain = 0
KAD1 091419Z 18010KT 24/15 A3036 RMK A01 T02350151  RH  059%=      5-min Rain = 0
KAD1 091420Z 19008KT 24/15 A3036 RMK A01 T02360151  RH  059%=      5-min Rain = 0
KAD1 091421Z 18008KT 24/15 A3036 RMK A01 T02360151  RH  059%=      5-min Rain = 0
KAD1 091422Z 18008KT 24/15 A3036 RMK A01 T02370152  RH  059%=      5-min Rain = 0
KAD1 091423Z 21009KT 24/15 A3036 RMK A01 T02370151  RH  059%=      5-min Rain = 0
KAD1 091424Z 21008KT 24/15 A3036 RMK A01 T02370152  RH  059%=      5-min Rain = 0
KAD1 091425Z 21008KT 24/15 A3036 RMK A01 T02370152  RH  059%=      5-min Rain = 0
KAD1 091426Z 21006KT 24/15 A3036 RMK A01 T02380152  RH  059%=      5-min Rain = 0
KAD1 091427Z 20007KT 24/15 A3036 RMK A01 T02380153  RH  059%=      5-min Rain = 0
KAD1 091428Z 21008KT 24/15 A3036 RMK A01 T02400153  RH  058%=      5-min Rain = 0
KAD1 091429Z 20009KT 24/15 A3036 RMK A01 T02410154  RH  058%=      5-min Rain = 0
KAD1 091430Z 21008KT 24/15 A3036 RMK A01 T02420153  RH  057%=      5-min Rain = 0
KAD1 091431Z 20007KT 24/15 A3036 RMK A01 T02420154  RH  058%=      5-min Rain = 0
KAD1 091432Z 21007KT 24/15 A3036 RMK A01 T02420153  RH  058%=      5-min Rain = 0
KAD1 091433Z 22007KT 24/15 A3036 RMK A01 T02410153  RH  058%=      5-min Rain = 0
KAD1 091434Z 20008KT 24/15 A3036 RMK A01 T02410154  RH  058%=      5-min Rain = 0
KAD1 091435Z 20009KT 24/15 A3036 RMK A01 T02430153  RH  057%=      5-min Rain = 0
KAD1 091436Z 20008KT 24/15 A3036 RMK A01 T02430152  RH  057%=      5-min Rain = 0
KAD1 091437Z 21007KT 24/15 A3036 RMK A01 T02420153  RH  058%=      5-min Rain = 0
KAD1 091438Z 21009KT 24/15 A3036 RMK A01 T02420153  RH  058%=      5-min Rain = 0
KAD1 091439Z 22008KT 24/15 A3036 RMK A01 T02420152  RH  057%=      5-min Rain = 0
KAD1 091440Z 22007KT 24/15 A3036 RMK A01 T02420153  RH  057%=      5-min Rain = 0
KAD1 091441Z 23007KT 24/15 A3036 RMK A01 T02420153  RH  057%=      5-min Rain = 0
KAD1 091442Z 20008KT 24/15 A3036 RMK A01 T02430152  RH  057%=      5-min Rain = 0
KAD1 091443Z 19006KT 24/15 A3036 RMK A01 T02420153  RH  058%=      5-min Rain = 0
KAD1 091444Z 20007KT 24/15 A3036 RMK A01 T02430153  RH  057%=      5-min Rain = 0
KAD1 091445Z 20007KT 25/15 A3036 RMK A01 T02460154  RH  056%=      5-min Rain = 0
KAD1 091446Z 20008KT 25/15 A3036 RMK A01 T02480153  RH  056%=      5-min Rain = 0
KAD1 091447Z 18008KT 25/15 A3036 RMK A01 T02470153  RH  056%=      5-min Rain = 0
KAD1 091448Z 19009KT 25/15 A3036 RMK A01 T02460153  RH  056%=      5-min Rain = 0
KAD1 091449Z 21007KT 25/15 A3036 RMK A01 T02450153  RH  056%=      5-min Rain = 0
KAD1 091450Z 19006KT 25/15 A3036 RMK A01 T02460153  RH  056%=      5-min Rain = 0
KAD1 091451Z 18007KT 25/15 A3036 RMK A01 T02460153  RH  056%=      5-min Rain = 0
KAD1 091452Z 21007KT 25/15 A3036 RMK A01 T02460154  RH  056%=      5-min Rain = 0
KAD1 091453Z 22009KT 25/15 A3036 RMK A01 T02460152  RH  056%=      5-min Rain = 0
KAD1 091454Z 22007KT 25/15 A3036 RMK A01 T02450152  RH  056%=      5-min Rain = 0
KAD1 091455Z 21008KT 24/15 A3036 RMK A01 T02440152  RH  056%=      5-min Rain = 0
KAD1 091456Z 22006KT 24/15 A3036 RMK A01 T02440152  RH  057%=      5-min Rain = 0
KAD1 091457Z 22008KT 24/15 A3036 RMK A01 T02440152  RH  056%=      5-min Rain = 0
KAD1 091458Z 21006KT 24/15 A3036 RMK A01 T02440152  RH  057%=      5-min Rain = 0
KAD1 091459Z 22005KT 25/15 A3036 RMK A01 T02460152  RH  056%=      5-min Rain = 0
KAD1 091500Z 22006KT 25/15 A3036 RMK A01 T02470152  RH  055%=      5-min Rain = 0
KAD1 091501Z 23006KT 25/15 A3036 RMK A01 T02470152  RH  055%=      5-min Rain = 0
KAD1 091502Z 24004KT 25/15 A3036 RMK A01 T02460151  RH  055%=      5-min Rain = 0
KAD1 091503Z 18004KT 25/15 A3036 RMK A01 T02470151  RH  055%=      5-min Rain = 0
KAD1 091504Z 22006KT 25/15 A3036 RMK A01 T02480153  RH  055%=      5-min Rain = 0
KAD1 091505Z 22008KT 25/15 A3036 RMK A01 T02500152  RH  054%=      5-min Rain = 0
KAD1 091506Z 23009KT 25/15 A3036 RMK A01 T02500152  RH  055%=      5-min Rain = 0
KAD1 091507Z 21007KT 25/15 A3036 RMK A01 T02490151  RH  055%=      5-min Rain = 0
KAD1 091508Z 21008KT 25/15 A3036 RMK A01 T02480151  RH  055%=      5-min Rain = 0
KAD1 091509Z 18006KT 25/15 A3036 RMK A01 T02480149  RH  054%=      5-min Rain = 0
KAD1 091510Z 18007KT 25/15 A3036 RMK A01 T02480151  RH  055%=      5-min Rain = 0
KAD1 091511Z 21007KT 25/15 A3036 RMK A01 T02490151  RH  054%=      5-min Rain = 0
KAD1 091512Z 21005KT 25/15 A3036 RMK A01 T02500149  RH  054%=      5-min Rain = 0
KAD1 091513Z 21003KT 25/15 A3036 RMK A01 T02480150  RH  054%=      5-min Rain = 0
KAD1 091514Z 24004KT 25/15 A3036 RMK A01 T02460150  RH  055%=      5-min Rain = 0
KAD1 091515Z 25004KT 25/15 A3036 RMK A01 T02460150  RH  055%=      5-min Rain = 0
KAD1 091516Z 18004KT 25/15 A3036 RMK A01 T02480151  RH  055%=      5-min Rain = 0
KAD1 091517Z 20007KT 25/15 A3036 RMK A01 T02500154  RH  055%=      5-min Rain = 0
KAD1 091518Z 22008KT 25/15 A3036 RMK A01 T02520152  RH  054%=      5-min Rain = 0
KAD1 091519Z 21006KT 25/15 A3036 RMK A01 T02530151  RH  053%=      5-min Rain = 0
KAD1 091520Z 19008KT 25/15 A3036 RMK A01 T02520151  RH  053%=      5-min Rain = 0
KAD1 091521Z 18008KT 25/15 A3036 RMK A01 T02520149  RH  053%=      5-min Rain = 0
KAD1 091522Z 21006KT 25/15 A3036 RMK A01 T02520149  RH  053%=      5-min Rain = 0
KAD1 091523Z 22006KT 25/15 A3036 RMK A01 T02520149  RH  053%=      5-min Rain = 0
KAD1 091524Z 24006KT 25/15 A3036 RMK A01 T02510149  RH  053%=      5-min Rain = 0
KAD1 091525Z 26005KT 25/15 A3036 RMK A01 T02510148  RH  053%=      5-min Rain = 0
KAD1 091526Z 27004KT 25/15 A3036 RMK A01 T02490147  RH  053%=      5-min Rain = 0
KAD1 091527Z 26004KT 25/15 A3036 RMK A01 T02470148  RH  054%=      5-min Rain = 0
KAD1 091528Z 24006KT 25/15 A3036 RMK A01 T02480150  RH  054%=      5-min Rain = 0
KAD1 091529Z 24005KT 25/15 A3036 RMK A01 T02490151  RH  054%=      5-min Rain = 0
KAD1 091530Z 27004KT 25/15 A3036 RMK A01 T02520150  RH  053%=      5-min Rain = 0
KAD1 091531Z 28004KT 25/15 A3036 RMK A01 T02540150  RH  052%=      5-min Rain = 0
KAD1 091532Z 26003KT 25/15 A3036 RMK A01 T02540150  RH  052%=      5-min Rain = 0
KAD1 091533Z 23006KT 25/15 A3036 RMK A01 T02540149  RH  052%=      5-min Rain = 0
KAD1 091534Z 20007KT 25/15 A3036 RMK A01 T02540148  RH  052%=      5-min Rain = 0
KAD1 091535Z 20007KT 25/15 A3036 RMK A01 T02540149  RH  052%=      5-min Rain = 0
KAD1 091536Z 20006KT 25/15 A3036 RMK A01 T02530148  RH  052%=      5-min Rain = 0
KAD1 091537Z 20005KT 25/15 A3036 RMK A01 T02510145  RH  052%=      5-min Rain = 0
KAD1 091538Z 20004KT 25/15 A3036 RMK A01 T02500145  RH  052%=      5-min Rain = 0
KAD1 091539Z 22003KT 25/15 A3036 RMK A01 T02500145  RH  052%=      5-min Rain = 0
KAD1 091540Z 24003KT 25/14 A3036 RMK A01 T02520144  RH  051%=      5-min Rain = 0
KAD1 091541Z 24005KT 25/15 A3036 RMK A01 T02530147  RH  052%=      5-min Rain = 0
KAD1 091542Z 24005KT 25/15 A3036 RMK A01 T02540147  RH  051%=      5-min Rain = 0
KAD1 091543Z 20004KT 25/15 A3036 RMK A01 T02540147  RH  052%=      5-min Rain = 0
KAD1 091544Z 24004KT 25/15 A3036 RMK A01 T02540146  RH  051%=      5-min Rain = 0
KAD1 091545Z 22003KT 26/15 A3036 RMK A01 T02550146  RH  051%=      5-min Rain = 0
KAD1 091546Z 23003KT 26/15 A3036 RMK A01 T02560147  RH  051%=      5-min Rain = 0
KAD1 091547Z 20004KT 26/15 A3036 RMK A01 T02570148  RH  051%=      5-min Rain = 0
KAD1 091548Z 18006KT 26/15 A3036 RMK A01 T02560149  RH  051%=      5-min Rain = 0
KAD1 091549Z 20007KT 26/15 A3036 RMK A01 T02550149  RH  052%=      5-min Rain = 0
KAD1 091550Z 19005KT 26/15 A3036 RMK A01 T02570149  RH  051%=      5-min Rain = 0
KAD1 091551Z 15002KT 26/15 A3036 RMK A01 T02570149  RH  051%=      5-min Rain = 0
KAD1 091552Z 22001KT 26/15 A3036 RMK A01 T02570148  RH  051%=      5-min Rain = 0
KAD1 091553Z 22006KT 26/15 A3036 RMK A01 T02570147  RH  051%=      5-min Rain = 0
KAD1 091554Z 21005KT 26/15 A3036 RMK A01 T02580147  RH  050%=      5-min Rain = 0
KAD1 091555Z 22006KT 26/15 A3036 RMK A01 T02610146  RH  049%=      5-min Rain = 0
KAD1 091556Z 21008KT 26/15 A3036 RMK A01 T02610146  RH  049%=      5-min Rain = 0
KAD1 091557Z 20007KT 26/15 A3036 RMK A01 T02610145  RH  049%=      5-min Rain = 0
KAD1 091558Z 20002KT 26/14 A3036 RMK A01 T02600142  RH  048%=      5-min Rain = 0
KAD1 091559Z 16004G9KT 26/14 A3036 RMK A01 T02600140  RH  048%=      5-min Rain = 0
KAD1 091600Z 15005KT 26/14 A3036 RMK A01 T02590143  RH  049%=      5-min Rain = 0
KAD1 091601Z 15005KT 26/14 A3036 RMK A01 T02580141  RH  048%=      5-min Rain = 0
KAD1 091602Z 14004KT 26/14 A3036 RMK A01 T02560138  RH  048%=      5-min Rain = 0
KAD1 091603Z 13004KT 26/14 A3036 RMK A01 T02560141  RH  049%=      5-min Rain = 0
KAD1 091604Z 16007G17KT 26/14 A3036 RMK A01 T02570144  RH  050%=      5-min Rain = 0
KAD1 091605Z 21008G16KT 26/15 A3035 RMK A01 T02570145  RH  050%=      5-min Rain = 0
KAD1 091606Z 19005KT 26/15 A3036 RMK A01 T02590145  RH  050%=      5-min Rain = 0
KAD1 091607Z 20007KT 26/15 A3036 RMK A01 T02610147  RH  049%=      5-min Rain = 0
KAD1 091608Z 19006KT 26/15 A3036 RMK A01 T02620145  RH  048%=      5-min Rain = 0
KAD1 091609Z 19009KT 26/15 A3036 RMK A01 T02640145  RH  048%=      5-min Rain = 0
KAD1 091610Z 20007KT 27/14 A3036 RMK A01 T02650142  RH  047%=      5-min Rain = 0
KAD1 091611Z 20005KT 26/14 A3036 RMK A01 T02630139  RH  046%=      5-min Rain = 0
KAD1 091612Z 23003KT 26/14 A3036 RMK A01 T02600138  RH  047%=      5-min Rain = 0
KAD1 091613Z 23004KT 26/14 A3036 RMK A01 T02590139  RH  048%=      5-min Rain = 0
KAD1 091614Z 22004KT 26/14 A3036 RMK A01 T02570139  RH  048%=      5-min Rain = 0
KAD1 091615Z 19003KT 26/14 A3036 RMK A01 T02560141  RH  049%=      5-min Rain = 0
KAD1 091616Z 17004KT 26/15 A3036 RMK A01 T02570145  RH  050%=      5-min Rain = 0
KAD1 091617Z 17006KT 26/14 A3036 RMK A01 T02580143  RH  049%=      5-min Rain = 0
KAD1 091618Z 16007KT 26/14 A3036 RMK A01 T02580140  RH  048%=      5-min Rain = 0
KAD1 091619Z 17004KT 26/14 A3036 RMK A01 T02570138  RH  048%=      5-min Rain = 0
KAD1 091620Z 16002KT 26/14 A3036 RMK A01 T02560137  RH  048%=      5-min Rain = 0
KAD1 091621Z 13003KT 26/14 A3036 RMK A01 T02570135  RH  047%=      5-min Rain = 0
KAD1 091622Z 11004KT 26/13 A3036 RMK A01 T02580131  RH  045%=      5-min Rain = 0
KAD1 091623Z 10002KT 26/13 A3036 RMK A01 T02600134  RH  046%=      5-min Rain = 0
KAD1 091624Z 11001KT 26/14 A3036 RMK A01 T02620138  RH  046%=      5-min Rain = 0
KAD1 091625Z 13002KT 26/14 A3036 RMK A01 T02640139  RH  046%=      5-min Rain = 0
KAD1 091626Z 16003KT 27/14 A3036 RMK A01 T02650138  RH  045%=      5-min Rain = 0
KAD1 091627Z 16003KT 27/13 A3036 RMK A01 T02650134  RH  044%=      5-min Rain = 0
KAD1 091628Z 17002KT 26/14 A3036 RMK A01 T02640136  RH  045%=      5-min Rain = 0
KAD1 091629Z 17002KT 26/14 A3036 RMK A01 T02630139  RH  046%=      5-min Rain = 0
KAD1 091630Z 08003KT 26/14 A3036 RMK A01 T02630139  RH  047%=      5-min Rain = 0
KAD1 091631Z 08004KT 26/14 A3036 RMK A01 T02620140  RH  047%=      5-min Rain = 0
KAD1 091632Z 09005KT 26/14 A3036 RMK A01 T02610144  RH  048%=      5-min Rain = 0
KAD1 091633Z 10006KT 26/15 A3036 RMK A01 T02610145  RH  049%=      5-min Rain = 0
KAD1 091634Z 09004KT 26/14 A3036 RMK A01 T02610144  RH  048%=      5-min Rain = 0
KAD1 091635Z 11004KT 26/14 A3036 RMK A01 T02590144  RH  049%=      5-min Rain = 0
KAD1 091636Z 11005KT 26/14 A3036 RMK A01 T02580142  RH  049%=      5-min Rain = 0
KAD1 091637Z 10003KT 26/14 A3036 RMK A01 T02590143  RH  049%=      5-min Rain = 0
KAD1 091638Z 10004KT 26/14 A3036 RMK A01 T02590142  RH  049%=      5-min Rain = 0
KAD1 091639Z 12004KT 26/14 A3036 RMK A01 T02580143  RH  049%=      5-min Rain = 0
KAD1 091640Z 11003KT 26/14 A3036 RMK A01 T02590144  RH  049%=      5-min Rain = 0
KAD1 091641Z 12002KT 26/15 A3036 RMK A01 T02610145  RH  049%=      5-min Rain = 0
KAD1 091642Z 14001KT 26/15 A3036 RMK A01 T02630145  RH  048%=      5-min Rain = 0
KAD1 091643Z 13001KT 27/15 A3036 RMK A01 T02650146  RH  048%=      5-min Rain = 0
KAD1 091644Z 12000KT 27/15 A3036 RMK A01 T02680146  RH  047%=      5-min Rain = 0
KAD1 091645Z 29000KT 27/15 A3036 RMK A01 T02710146  RH  046%=      5-min Rain = 0
KAD1 091646Z 09000KT 27/15 A3036 RMK A01 T02730145  RH  045%=      5-min Rain = 0
KAD1 091647Z 11004KT 28/15 A3036 RMK A01 T02750148  RH  046%=      5-min Rain = 0
KAD1 091648Z 11005KT 28/15 A3036 RMK A01 T02780146  RH  044%=      5-min Rain = 0
KAD1 091649Z 10004KT 28/15 A3036 RMK A01 T02750145  RH  045%=      5-min Rain = 0
KAD1 091650Z 10003KT 27/15 A3036 RMK A01 T02740145  RH  045%=      5-min Rain = 0
KAD1 091651Z 09002KT 27/15 A3036 RMK A01 T02720145  RH  046%=      5-min Rain = 0
KAD1 091652Z 18002KT 27/14 A3036 RMK A01 T02690143  RH  046%=      5-min Rain = 0
KAD1 091653Z 22003KT 27/14 A3036 RMK A01 T02690143  RH  046%=      5-min Rain = 0
KAD1 091654Z 16004KT 27/14 A3036 RMK A01 T02710143  RH  045%=      5-min Rain = 0
KAD1 091655Z 15008KT 28/14 A3036 RMK A01 T02750142  RH  044%=      5-min Rain = 0
KAD1 091656Z 14006KT 27/14 A3036 RMK A01 T02740138  RH  043%=      5-min Rain = 0
KAD1 091657Z 15008KT 27/14 A3036 RMK A01 T02720140  RH  044%=      5-min Rain = 0
KAD1 091658Z 15007KT 27/14 A3036 RMK A01 T02730139  RH  044%=      5-min Rain = 0
KAD1 091659Z 17007KT 27/14 A3036 RMK A01 T02730140  RH  044%=      5-min Rain = 0
KAD1 091700Z 18006KT 28/14 A3036 RMK A01 T02750140  RH  043%=      5-min Rain = 0
KAD1 091701Z 17006KT 28/14 A3036 RMK A01 T02800143  RH  043%=      5-min Rain = 0
KAD1 091702Z 15008KT 29/15 A3036 RMK A01 T02850145  RH  042%=      5-min Rain = 0
KAD1 091703Z 15008KT 29/14 A3036 RMK A01 T02910143  RH  040%=      5-min Rain = 0
KAD1 091704Z 15007KT 29/14 A3036 RMK A01 T02920141  RH  040%=      5-min Rain = 0
KAD1 091705Z 13006KT 29/14 A3036 RMK A01 T02910142  RH  040%=      5-min Rain = 0
KAD1 091706Z 11006KT 29/14 A3036 RMK A01 T02900140  RH  040%=      5-min Rain = 0
KAD1 091707Z 12004KT 29/14 A3036 RMK A01 T02850136  RH  040%=      5-min Rain = 0
KAD1 091708Z 13004KT 28/14 A3036 RMK A01 T02810137  RH  041%=      5-min Rain = 0
KAD1 091709Z 15009KT 28/14 A3036 RMK A01 T02810139  RH  042%=      5-min Rain = 0
KAD1 091710Z 14008G13KT 28/14 A3036 RMK A01 T02820138  RH  041%=      5-min Rain = 0
KAD1 091711Z 16009KT 28/14 A3036 RMK A01 T02810138  RH  041%=      5-min Rain = 0
KAD1 091712Z 16008KT 28/14 A3036 RMK A01 T02790135  RH  041%=      5-min Rain = 0
KAD1 091713Z 17008KT 28/14 A3036 RMK A01 T02780136  RH  042%=      5-min Rain = 0
KAD1 091714Z 17008KT 28/14 A3036 RMK A01 T02790137  RH  042%=      5-min Rain = 0
KAD1 091715Z 16004KT 28/14 A3035 RMK A01 T02800136  RH  041%=      5-min Rain = 0
KAD1 091716Z 17006G11KT 28/14 A3035 RMK A01 T02810137  RH  041%=      5-min Rain = 0
KAD1 091717Z 17009KT 29/14 A3035 RMK A01 T02850137  RH  040%=      5-min Rain = 0
KAD1 091718Z 15005KT 29/13 A3035 RMK A01 T02850134  RH  039%=      5-min Rain = 0
KAD1 091719Z 16002KT 28/13 A3035 RMK A01 T02820133  RH  040%=      5-min Rain = 0
KAD1 091720Z 18006KT 28/14 A3035 RMK A01 T02830135  RH  040%=      5-min Rain = 0
KAD1 091721Z 19007KT 29/13 A3035 RMK A01 T02850131  RH  039%=      5-min Rain = 0
KAD1 091722Z 19009KT 28/13 A3035 RMK A01 T02830133  RH  040%=      5-min Rain = 0
KAD1 091723Z 20010KT 29/13 A3035 RMK A01 T02850131  RH  039%=      5-min Rain = 0
KAD1 091724Z 21008KT 28/13 A3035 RMK A01 T02830131  RH  039%=      5-min Rain = 0
KAD1 091725Z 21005KT 28/13 A3035 RMK A01 T02810132  RH  040%=      5-min Rain = 0
KAD1 091726Z 21003KT 28/13 A3035 RMK A01 T02820133  RH  040%=      5-min Rain = 0
KAD1 091727Z 22002KT 29/13 A3035 RMK A01 T02870133  RH  039%=      5-min Rain = 0
KAD1 091728Z 05002KT 29/13 A3035 RMK A01 T02890134  RH  039%=      5-min Rain = 0
KAD1 091729Z 11007KT 29/14 A3035 RMK A01 T02880135  RH  039%=      5-min Rain = 0
KAD1 091730Z 13006KT 29/13 A3035 RMK A01 T02880133  RH  039%=      5-min Rain = 0
KAD1 091731Z 17005KT 29/13 A3035 RMK A01 T02860133  RH  039%=      5-min Rain = 0
KAD1 091732Z 21003KT 28/13 A3035 RMK A01 T02840131  RH  039%=      5-min Rain = 0
KAD1 091733Z 17004KT 28/13 A3035 RMK A01 T02830133  RH  040%=      5-min Rain = 0
KAD1 091734Z 13004KT 29/13 A3035 RMK A01 T02850134  RH  039%=      5-min Rain = 0
KAD1 091735Z 13006KT 29/13 A3035 RMK A01 T02860132  RH  039%=      5-min Rain = 0
KAD1 091736Z 13009KT 29/13 A3035 RMK A01 T02900133  RH  038%=      5-min Rain = 0
KAD1 091737Z 15010KT 29/13 A3035 RMK A01 T02920132  RH  037%=      5-min Rain = 0
KAD1 091738Z 17009KT 29/13 A3035 RMK A01 T02940130  RH  036%=      5-min Rain = 0
KAD1 091739Z 15011KT 29/13 A3035 RMK A01 T02920129  RH  037%=      5-min Rain = 0
KAD1 091740Z 15007KT 29/13 A3035 RMK A01 T02870126  RH  037%=      5-min Rain = 0
KAD1 091741Z 16005KT 28/13 A3035 RMK A01 T02840126  RH  038%=      5-min Rain = 0
KAD1 091742Z 16008KT 28/13 A3035 RMK A01 T02820127  RH  039%=      5-min Rain = 0
KAD1 091743Z 18006KT 28/12 A3035 RMK A01 T02780123  RH  038%=      5-min Rain = 0
KAD1 091744Z 16004KT 28/13 A3035 RMK A01 T02750125  RH  040%=      5-min Rain = 0
KAD1 091745Z 14008KT 28/13 A3035 RMK A01 T02750128  RH  040%=      5-min Rain = 0
KAD1 091746Z 14005KT 27/13 A3035 RMK A01 T02740126  RH  040%=      5-min Rain = 0
KAD1 091747Z 16008KT 27/13 A3035 RMK A01 T02730129  RH  041%=      5-min Rain = 0
KAD1 091748Z 17011KT 27/13 A3035 RMK A01 T02730129  RH  041%=      5-min Rain = 0
KAD1 091749Z 16011KT 27/13 A3035 RMK A01 T02730126  RH  040%=      5-min Rain = 0
KAD1 091750Z 17008KT 27/13 A3035 RMK A01 T02720126  RH  040%=      5-min Rain = 0
KAD1 091751Z 18007KT 27/12 A3035 RMK A01 T02710124  RH  040%=      5-min Rain = 0
KAD1 091752Z 17008KT 27/12 A3035 RMK A01 T02700124  RH  040%=      5-min Rain = 0
KAD1 091753Z 17007KT 27/12 A3035 RMK A01 T02710123  RH  040%=      5-min Rain = 0
KAD1 091754Z 14008KT 27/13 A3035 RMK A01 T02710125  RH  041%=      5-min Rain = 0
KAD1 091755Z 15009KT 27/13 A3035 RMK A01 T02730126  RH  040%=      5-min Rain = 0
KAD1 091756Z 15007KT 27/13 A3035 RMK A01 T02730125  RH  040%=      5-min Rain = 0
KAD1 091757Z 13005KT 27/13 A3035 RMK A01 T02720126  RH  040%=      5-min Rain = 0
KAD1 091758Z 15005KT 27/13 A3035 RMK A01 T02730126  RH  040%=      5-min Rain = 0
KAD1 091759Z 15004KT 28/13 A3035 RMK A01 T02750125  RH  039%=      5-min Rain = 0
KAD1 091800Z 13007KT 28/12 A3035 RMK A01 T02750123  RH  039%=      5-min Rain = 0
KAD1 091801Z 14006KT 27/12 A3035 RMK A01 T02740123  RH  039%=      5-min Rain = 0
KAD1 091802Z 15006KT 27/12 A3035 RMK A01 T02740124  RH  039%=      5-min Rain = 0
KAD1 091803Z 14007KT 27/12 A3035 RMK A01 T02740121  RH  038%=      5-min Rain = 0
KAD1 091804Z 14005KT 28/12 A3035 RMK A01 T02760118  RH  038%=      5-min Rain = 0
KAD1 091805Z 16007KT 28/12 A3035 RMK A01 T02750119  RH  038%=      5-min Rain = 0
KAD1 091806Z 17008KT 28/12 A3035 RMK A01 T02750120  RH  038%=      5-min Rain = 0
KAD1 091807Z 20007KT 28/12 A3035 RMK A01 T02760120  RH  038%=      5-min Rain = 0
KAD1 091808Z 20007KT 28/12 A3035 RMK A01 T02770119  RH  038%=      5-min Rain = 0
KAD1 091809Z 19005KT 28/12 A3035 RMK A01 T02760118  RH  038%=      5-min Rain = 0
KAD1 091810Z 20004KT 27/12 A3035 RMK A01 T02740118  RH  038%=      5-min Rain = 0
KAD1 091811Z 19003KT 27/12 A3035 RMK A01 T02740118  RH  038%=      5-min Rain = 0
KAD1 091812Z 18003KT 27/12 A3035 RMK A01 T02740119  RH  038%=      5-min Rain = 0
KAD1 091813Z 16002KT 27/12 A3034 RMK A01 T02740118  RH  038%=      5-min Rain = 0
KAD1 091814Z 22003KT 28/12 A3034 RMK A01 T02750119  RH  038%=      5-min Rain = 0
KAD1 091815Z 13005KT 28/12 A3034 RMK A01 T02760122  RH  038%=      5-min Rain = 0
KAD1 091816Z 13007KT 28/13 A3034 RMK A01 T02790125  RH  039%=      5-min Rain = 0
KAD1 091817Z 15005KT 28/13 A3034 RMK A01 T02800127  RH  039%=      5-min Rain = 0
KAD1 091818Z 16004KT 28/13 A3034 RMK A01 T02820125  RH  038%=      5-min Rain = 0
KAD1 091819Z 17004KT 28/13 A3034 RMK A01 T02820125  RH  038%=      5-min Rain = 0
KAD1 091820Z 18005KT 28/12 A3034 RMK A01 T02820124  RH  037%=      5-min Rain = 0
KAD1 091821Z 19004KT 28/12 A3034 RMK A01 T02800123  RH  038%=      5-min Rain = 0
KAD1 091822Z 18004KT 28/13 A3034 RMK A01 T02780125  RH  039%=      5-min Rain = 0
KAD1 091823Z 19008KT 28/12 A3034 RMK A01 T02770124  RH  039%=      5-min Rain = 0
KAD1 091824Z 20006KT 28/12 A3034 RMK A01 T02780123  RH  038%=      5-min Rain = 0
KAD1 091825Z 18008G13KT 28/12 A3034 RMK A01 T02780123  RH  038%=      5-min Rain = 0
KAD1 091826Z 16011KT 28/13 A3034 RMK A01 T02790127  RH  039%=      5-min Rain = 0
KAD1 091827Z 15010KT 28/13 A3034 RMK A01 T02810129  RH  039%=      5-min Rain = 0
KAD1 091828Z 15008G13KT 28/13 A3034 RMK A01 T02820128  RH  039%=      5-min Rain = 0
KAD1 091829Z 15009KT 28/13 A3034 RMK A01 T02840129  RH  038%=      5-min Rain = 0
KAD1 091830Z 15008KT 29/13 A3034 RMK A01 T02850126  RH  037%=      5-min Rain = 0
KAD1 091831Z 15010KT 29/13 A3034 RMK A01 T02860129  RH  038%=      5-min Rain = 0
KAD1 091832Z 14008KT 29/13 A3034 RMK A01 T02860127  RH  037%=      5-min Rain = 0
KAD1 091833Z 16007KT 28/13 A3034 RMK A01 T02840127  RH  038%=      5-min Rain = 0
KAD1 091834Z 15010KT 29/13 A3034 RMK A01 T02850131  RH  039%=      5-min Rain = 0
KAD1 091835Z 17006KT 29/13 A3034 RMK A01 T02880128  RH  037%=      5-min Rain = 0
KAD1 091836Z 17008KT 29/13 A3034 RMK A01 T02880129  RH  037%=      5-min Rain = 0
KAD1 091837Z 17007KT 29/13 A3034 RMK A01 T02870130  RH  038%=      5-min Rain = 0
KAD1 091838Z 17006KT 29/13 A3034 RMK A01 T02850127  RH  038%=      5-min Rain = 0
KAD1 091839Z 18004KT 28/13 A3034 RMK A01 T02840125  RH  037%=      5-min Rain = 0
KAD1 091840Z 17004KT 28/13 A3034 RMK A01 T02840125  RH  037%=      5-min Rain = 0
KAD1 091841Z 13001KT 29/12 A3034 RMK A01 T02850122  RH  037%=      5-min Rain = 0
KAD1 091842Z 02002KT 29/12 A3034 RMK A01 T02850122  RH  037%=      5-min Rain = 0
KAD1 091843Z 04005KT 29/12 A3034 RMK A01 T02850122  RH  037%=      5-min Rain = 0
KAD1 091844Z 07002KT 28/12 A3034 RMK A01 T02830124  RH  037%=      5-min Rain = 0
KAD1 091845Z 23004G9KT 28/12 A3034 RMK A01 T02800123  RH  038%=      5-min Rain = 0
KAD1 091846Z 16005KT 28/12 A3033 RMK A01 T02810123  RH  038%=      5-min Rain = 0
KAD1 091847Z 16006KT 28/12 A3033 RMK A01 T02820120  RH  037%=      5-min Rain = 0
KAD1 091848Z 14007KT 29/12 A3033 RMK A01 T02850118  RH  036%=      5-min Rain = 0
KAD1 091849Z 12006KT 29/12 A3033 RMK A01 T02870117  RH  035%=      5-min Rain = 0
KAD1 091850Z 11004KT 29/12 A3033 RMK A01 T02880118  RH  035%=      5-min Rain = 0
KAD1 091851Z 12003KT 29/12 A3033 RMK A01 T02870117  RH  035%=      5-min Rain = 0
KAD1 091852Z 17004KT 29/12 A3033 RMK A01 T02870119  RH  035%=      5-min Rain = 0
KAD1 091853Z 17008KT 29/12 A3033 RMK A01 T02890121  RH  035%=      5-min Rain = 0
KAD1 091854Z 15010KT 30/12 A3033 RMK A01 T02950115  RH  033%=      5-min Rain = 0
KAD1 091855Z 16010KT 30/11 A3033 RMK A01 T02960114  RH  032%=      5-min Rain = 0
KAD1 091856Z 16008KT 29/11 A3033 RMK A01 T02940113  RH  033%=      5-min Rain = 0
KAD1 091857Z 17014KT 30/11 A3033 RMK A01 T02960109  RH  031%=      5-min Rain = 0
KAD1 091858Z 18015KT 30/10 A3032 RMK A01 T02970103  RH  030%=      5-min Rain = 0
KAD1 091859Z 16012KT 30/11 A3033 RMK A01 T02970107  RH  031%=      5-min Rain = 0
KAD1 091900Z 17011KT 30/11 A3033 RMK A01 T02950112  RH  032%=      5-min Rain = 0
KAD1 091901Z 16011KT 29/11 A3033 RMK A01 T02940112  RH  033%=      5-min Rain = 0
KAD1 091902Z 14012KT 30/11 A3033 RMK A01 T02950114  RH  033%=      5-min Rain = 0
KAD1 091903Z 13009KT 30/11 A3033 RMK A01 T02970111  RH  032%=      5-min Rain = 0
KAD1 091904Z 14006KT 30/11 A3033 RMK A01 T02980111  RH  031%=      5-min Rain = 0
KAD1 091905Z 14010KT 30/11 A3033 RMK A01 T02980110  RH  031%=      5-min Rain = 0
KAD1 091906Z 16006KT 30/11 A3033 RMK A01 T02960108  RH  031%=      5-min Rain = 0
KAD1 091907Z 14004KT 29/11 A3032 RMK A01 T02930109  RH  032%=      5-min Rain = 0
KAD1 091908Z 10010KT 30/11 A3032 RMK A01 T02950108  RH  031%=      5-min Rain = 0
KAD1 091909Z 13007KT 30/10 A3032 RMK A01 T02960102  RH  030%=      5-min Rain = 0
KAD1 091910Z 16007KT 30/10 A3032 RMK A01 T02950102  RH  030%=      5-min Rain = 0
KAD1 091911Z 09010KT 29/10 A3032 RMK A01 T02940101  RH  030%=      5-min Rain = 0
KAD1 091912Z 11009KT 30/10 A3032 RMK A01 T02960099  RH  029%=      5-min Rain = 0
KAD1 091913Z 13008KT 30/10 A3032 RMK A01 T02990100  RH  029%=      5-min Rain = 0
KAD1 091914Z 13008KT 30/10 A3032 RMK A01 T02980098  RH  029%=      5-min Rain = 0
KAD1 091915Z 14011KT 30/11 A3032 RMK A01 T02980105  RH  030%=      5-min Rain = 0
KAD1 091916Z 15014KT 30/11 A3032 RMK A01 T03020109  RH  030%=      5-min Rain = 0
KAD1 091917Z 16011KT 30/11 A3032 RMK A01 T03010106  RH  030%=      5-min Rain = 0
KAD1 091918Z 17009KT 30/10 A3032 RMK A01 T03000103  RH  029%=      5-min Rain = 0
KAD1 091919Z 15012G21KT 30/10 A3032 RMK A01 T02990102  RH  030%=      5-min Rain = 0
KAD1 091920Z 15017G22KT 30/10 A3032 RMK A01 T03010099  RH  029%=      5-min Rain = 0
KAD1 091921Z 15010KT 30/10 A3032 RMK A01 T03010099  RH  028%=      5-min Rain = 0
KAD1 091922Z 14014KT 30/10 A3032 RMK A01 T03000099  RH  029%=      5-min Rain = 0
KAD1 091923Z 14011KT 30/10 A3032 RMK A01 T02990096  RH  028%=      5-min Rain = 0
KAD1 091924Z 14010KT 30/10 A3032 RMK A01 T02970095  RH  029%=      5-min Rain = 0
KAD1 091925Z 14006G11KT 30/10 A3032 RMK A01 T02960095  RH  029%=      5-min Rain = 0
KAD1 091926Z 15009KT 30/10 A3032 RMK A01 T02960098  RH  029%=      5-min Rain = 0
KAD1 091927Z 15006KT 30/10 A3032 RMK A01 T02990099  RH  029%=      5-min Rain = 0
KAD1 091928Z 13010KT 30/10 A3032 RMK A01 T02980098  RH  029%=      5-min Rain = 0
KAD1 091929Z 12012KT 30/10 A3032 RMK A01 T02980104  RH  030%=      5-min Rain = 0
KAD1 091930Z 15014KT 30/11 A3031 RMK A01 T02990105  RH  030%=      5-min Rain = 0
KAD1 091931Z 15014KT 30/10 A3031 RMK A01 T03020104  RH  029%=      5-min Rain = 0
KAD1 091932Z 15011KT 30/11 A3032 RMK A01 T03020105  RH  030%=      5-min Rain = 0
KAD1 091933Z 14010KT 30/11 A3032 RMK A01 T03010106  RH  030%=      5-min Rain = 0
KAD1 091934Z 10008KT 30/11 A3032 RMK A01 T03030105  RH  029%=      5-min Rain = 0
KAD1 091935Z 13007G13KT 30/11 A3032 RMK A01 T03020105  RH  030%=      5-min Rain = 0
KAD1 091936Z 13012KT 30/10 A3031 RMK A01 T03010103  RH  029%=      5-min Rain = 0
KAD1 091937Z 11011KT 30/10 A3031 RMK A01 T03030103  RH  029%=      5-min Rain = 0
KAD1 091938Z 13011KT 30/10 A3031 RMK A01 T03010102  RH  029%=      5-min Rain = 0
KAD1 091939Z 13008G13KT 30/10 A3031 RMK A01 T03010102  RH  029%=      5-min Rain = 0
KAD1 091940Z 14010KT 30/10 A3031 RMK A01 T03020102  RH  029%=      5-min Rain = 0
KAD1 091941Z 13009G15KT 30/10 A3031 RMK A01 T03010101  RH  029%=      5-min Rain = 0
KAD1 091942Z 14015KT 30/11 A3031 RMK A01 T03010106  RH  030%=      5-min Rain = 0
KAD1 091943Z 14012KT 30/11 A3031 RMK A01 T03020105  RH  030%=      5-min Rain = 0
KAD1 091944Z 14008KT 30/11 A3031 RMK A01 T02990105  RH  030%=      5-min Rain = 0
KAD1 091945Z 12006KT 30/10 A3031 RMK A01 T02960103  RH  030%=      5-min Rain = 0
KAD1 091946Z 11005KT 29/10 A3031 RMK A01 T02920103  RH  031%=      5-min Rain = 0
KAD1 091947Z 15007KT 29/11 A3031 RMK A01 T02920106  RH  032%=      5-min Rain = 0
KAD1 091948Z 14010KT 30/11 A3031 RMK A01 T02960109  RH  031%=      5-min Rain = 0
KAD1 091949Z 13007KT 30/11 A3031 RMK A01 T02980107  RH  031%=      5-min Rain = 0
KAD1 091950Z 15003KT 30/11 A3031 RMK A01 T02950106  RH  031%=      5-min Rain = 0
KAD1 091951Z 17004KT 30/11 A3031 RMK A01 T02950107  RH  031%=      5-min Rain = 0
KAD1 091952Z 19006KT 30/11 A3031 RMK A01 T02990106  RH  030%=      5-min Rain = 0
KAD1 091953Z 15007KT 30/10 A3031 RMK A01 T03000104  RH  030%=      5-min Rain = 0
KAD1 091954Z 13011KT 30/10 A3031 RMK A01 T03000103  RH  029%=      5-min Rain = 0
KAD1 091955Z 14012KT 30/10 A3031 RMK A01 T03030101  RH  029%=      5-min Rain = 0
KAD1 091956Z 13008KT 30/10 A3031 RMK A01 T03030103  RH  029%=      5-min Rain = 0
KAD1 091957Z 13009KT 30/10 A3031 RMK A01 T03010102  RH  029%=      5-min Rain = 0
KAD1 091958Z 12005KT 30/10 A3031 RMK A01 T02970097  RH  029%=      5-min Rain = 0
KAD1 091959Z 12007KT 30/10 A3031 RMK A01 T02970101  RH  030%=      5-min Rain = 0
KAD1 092000Z 14007KT 30/10 A3031 RMK A01 T02980103  RH  030%=      5-min Rain = 0
KAD1 092001Z 16008KT 30/11 A3031 RMK A01 T03020108  RH  030%=      5-min Rain = 0
KAD1 092002Z 17005KT 30/11 A3031 RMK A01 T03020107  RH  030%=      5-min Rain = 0
KAD1 092003Z 13006KT 30/11 A303 RMK A01 T03010106  RH  030%=      5-min Rain = 0
KAD1 092004Z 13006KT 30/11 A3031 RMK A01 T02980105  RH  030%=      5-min Rain = 0
KAD1 092005Z 16007KT 30/11 A303 RMK A01 T02980109  RH  031%=      5-min Rain = 0
KAD1 092006Z 19006KT 30/10 A303 RMK A01 T03020096  RH  028%=      5-min Rain = 0
KAD1 092007Z 17007G14KT 30/10 A303 RMK A01 T03030096  RH  028%=      5-min Rain = 0
KAD1 092008Z 17012KT 30/10 A303 RMK A01 T03040100  RH  028%=      5-min Rain = 0
KAD1 092009Z 17009KT 30/10 A303 RMK A01 T03040100  RH  028%=      5-min Rain = 0
KAD1 092010Z 18009KT 31/10 A303 RMK A01 T03050099  RH  028%=      5-min Rain = 0
KAD1 092011Z 18008KT 30/10 A303 RMK A01 T03040100  RH  028%=      5-min Rain = 0
KAD1 092012Z 19010KT 31/10 A303 RMK A01 T03050098  RH  028%=      5-min Rain = 0
KAD1 092013Z 19010KT 30/10 A303 RMK A01 T03040101  RH  028%=      5-min Rain = 0
KAD1 092014Z 21006KT 30/10 A303 RMK A01 T03030102  RH  029%=      5-min Rain = 0
KAD1 092015Z 21006KT 30/10 A303 RMK A01 T03010103  RH  029%=      5-min Rain = 0
KAD1 092016Z 20006KT 30/10 A303 RMK A01 T03010103  RH  029%=      5-min Rain = 0
KAD1 092017Z 22004KT 30/10 A303 RMK A01 T02990102  RH  029%=      5-min Rain = 0
KAD1 092018Z 21003KT 30/10 A303 RMK A01 T02960103  RH  030%=      5-min Rain = 0
KAD1 092019Z 14007G12KT 30/11 A303 RMK A01 T02980108  RH  031%=      5-min Rain = 0
KAD1 092020Z 15012KT 30/11 A303 RMK A01 T03020108  RH  030%=      5-min Rain = 0
KAD1 092021Z 15008KT 30/11 A303 RMK A01 T03030105  RH  030%=      5-min Rain = 0
KAD1 092022Z 12006KT 30/11 A303 RMK A01 T03000105  RH  030%=      5-min Rain = 0
KAD1 092023Z 13010KT 30/11 A303 RMK A01 T02990105  RH  030%=      5-min Rain = 0
KAD1 092024Z 14011KT 30/11 A303 RMK A01 T03010109  RH  030%=      5-min Rain = 0
KAD1 092025Z 13007KT 30/10 A303 RMK A01 T03030103  RH  029%=      5-min Rain = 0
KAD1 092026Z 21006KT 30/10 A303 RMK A01 T02980102  RH  030%=      5-min Rain = 0
KAD1 092027Z 17009KT 30/10 A303 RMK A01 T02970103  RH  030%=      5-min Rain = 0
KAD1 092028Z 16005KT 30/10 A303 RMK A01 T03000103  RH  029%=      5-min Rain = 0
KAD1 092029Z 11003KT 30/10 A303 RMK A01 T03010100  RH  029%=      5-min Rain = 0
KAD1 092030Z 12003KT 30/10 A303 RMK A01 T03010097  RH  028%=      5-min Rain = 0
KAD1 092031Z 14004G9KT 30/10 A303 RMK A01 T03010099  RH  029%=      5-min Rain = 0
KAD1 092032Z 15008KT 30/10 A3029 RMK A01 T03020104  RH  029%=      5-min Rain = 0
KAD1 092033Z 16008KT 31/11 A3029 RMK A01 T03050105  RH  029%=      5-min Rain = 0
KAD1 092034Z 17008KT 31/10 A3029 RMK A01 T03050104  RH  029%=      5-min Rain = 0
KAD1 092035Z 17007KT 30/11 A3029 RMK A01 T03020108  RH  030%=      5-min Rain = 0
KAD1 092036Z 15006KT 30/11 A3029 RMK A01 T03010112  RH  031%=      5-min Rain = 0
KAD1 092037Z 14005KT 30/12 A3029 RMK A01 T03010115  RH  032%=      5-min Rain = 0
KAD1 092038Z 12004KT 30/11 A3029 RMK A01 T03020112  RH  031%=      5-min Rain = 0
KAD1 092039Z 11003KT 30/11 A3029 RMK A01 T03000113  RH  031%=      5-min Rain = 0
KAD1 092040Z 12007KT 30/11 A3029 RMK A01 T03010111  RH  031%=      5-min Rain = 0
KAD1 092041Z 16010KT 30/11 A3029 RMK A01 T03040109  RH  030%=      5-min Rain = 0
KAD1 092042Z 18009KT 31/11 A3029 RMK A01 T03090107  RH  029%=      5-min Rain = 0
KAD1 092043Z 17007KT 31/11 A3029 RMK A01 T03110105  RH  028%=      5-min Rain = 0
KAD1 092044Z 18004KT 31/11 A3029 RMK A01 T03100106  RH  028%=      5-min Rain = 0
KAD1 092045Z 17004KT 31/11 A3029 RMK A01 T03080107  RH  029%=      5-min Rain = 0
KAD1 092046Z 14006KT 31/11 A3029 RMK A01 T03080109  RH  029%=      5-min Rain = 0
KAD1 092047Z 13007KT 31/11 A3029 RMK A01 T03090110  RH  029%=      5-min Rain = 0
KAD1 092048Z 11005KT 31/11 A3029 RMK A01 T03090109  RH  029%=      5-min Rain = 0
KAD1 092049Z 11003KT 31/11 A3029 RMK A01 T03060107  RH  029%=      5-min Rain = 0
KAD1 092050Z 15004KT 31/11 A3029 RMK A01 T03050110  RH  030%=      5-min Rain = 0
KAD1 092051Z 16006KT 31/11 A3029 RMK A01 T03060111  RH  030%=      5-min Rain = 0
KAD1 092052Z 18008KT 31/11 A3029 RMK A01 T03080105  RH  029%=      5-min Rain = 0
KAD1 092053Z 16009KT 31/11 A3029 RMK A01 T03070106  RH  029%=      5-min Rain = 0
KAD1 092054Z 11006KT 31/10 A3029 RMK A01 T03050103  RH  029%=      5-min Rain = 0
KAD1 092055Z 14008G13KT 30/10 A3029 RMK A01 T03020104  RH  029%=      5-min Rain = 0
KAD1 092056Z 17010KT 30/11 A3029 RMK A01 T03040107  RH  030%=      5-min Rain = 0
KAD1 092057Z 18007KT 31/11 A3029 RMK A01 T03060105  RH  029%=      5-min Rain = 0
KAD1 092058Z 14010KT 31/11 A3029 RMK A01 T03090108  RH  029%=      5-min Rain = 0
KAD1 092059Z 12006KT 31/11 A3029 RMK A01 T03100108  RH  029%=      5-min Rain = 0
KAD1 092100Z 08004KT 31/11 A3029 RMK A01 T03060108  RH  029%=      5-min Rain = 0
KAD1 092101Z 12005KT 31/11 A3029 RMK A01 T03050110  RH  030%=      5-min Rain = 0
KAD1 092102Z 13007KT 31/11 A3029 RMK A01 T03060107  RH  029%=      5-min Rain = 0
KAD1 092103Z 12007KT 31/11 A3029 RMK A01 T03060108  RH  029%=      5-min Rain = 0
KAD1 092104Z 11003KT 31/11 A3029 RMK A01 T03060108  RH  030%=      5-min Rain = 0
KAD1 092105Z 14003KT 31/11 A3029 RMK A01 T03050109  RH  030%=      5-min Rain = 0
KAD1 092106Z 15010KT 31/10 A3028 RMK A01 T03080101  RH  028%=      5-min Rain = 0
KAD1 092107Z 16011G16KT 31/10 A3028 RMK A01 T03130097  RH  026%=      5-min Rain = 0
KAD1 092108Z 16008KT 32/10 A3029 RMK A01 T03180097  RH  026%=      5-min Rain = 0
KAD1 092109Z 16010KT 32/10 A3029 RMK A01 T03180096  RH  025%=      5-min Rain = 0
KAD1 092110Z 16010KT 32/10 A3028 RMK A01 T03160098  RH  026%=      5-min Rain = 0
KAD1 092111Z 16010KT 32/10 A3028 RMK A01 T03200098  RH  025%=      5-min Rain = 0
KAD1 092112Z 17010KT 32/10 A3029 RMK A01 T03190099  RH  026%=      5-min Rain = 0
KAD1 092113Z 16006KT 31/10 A3028 RMK A01 T03130097  RH  026%=      5-min Rain = 0
KAD1 092114Z 13008KT 31/10 A3028 RMK A01 T03090099  RH  027%=      5-min Rain = 0
KAD1 092115Z 14012KT 31/10 A3028 RMK A01 T03110100  RH  027%=      5-min Rain = 0
KAD1 092116Z 18010KT 31/10 A3028 RMK A01 T03110102  RH  027%=      5-min Rain = 0
KAD1 092117Z 17009KT 31/10 A3028 RMK A01 T03130099  RH  027%=      5-min Rain = 0
KAD1 092118Z 16011KT 31/10 A3028 RMK A01 T03140095  RH  026%=      5-min Rain = 0
KAD1 092119Z 17008KT 31/10 A3028 RMK A01 T03110100  RH  027%=      5-min Rain = 0
KAD1 092120Z 18009KT 31/10 A3028 RMK A01 T03070099  RH  028%=      5-min Rain = 0
KAD1 092121Z 17009KT 31/10 A3028 RMK A01 T03070098  RH  027%=      5-min Rain = 0
KAD1 092122Z 18009KT 31/10 A3028 RMK A01 T03070097  RH  027%=      5-min Rain = 0
KAD1 092123Z 18009KT 31/10 A3028 RMK A01 T03090100  RH  027%=      5-min Rain = 0
KAD1 092124Z 15009KT 31/10 A3028 RMK A01 T03110102  RH  027%=      5-min Rain = 0
KAD1 092125Z 13010KT 31/10 A3028 RMK A01 T03120096  RH  026%=      5-min Rain = 0
KAD1 092126Z 15011KT 32/10 A3028 RMK A01 T03160096  RH  026%=      5-min Rain = 0
KAD1 092127Z 16011KT 32/10 A3028 RMK A01 T03150101  RH  027%=      5-min Rain = 0
KAD1 092128Z 15009KT 31/10 A3028 RMK A01 T03120102  RH  027%=      5-min Rain = 0
KAD1 092129Z 15011KT 31/10 A3028 RMK A01 T03110103  RH  028%=      5-min Rain = 0
KAD1 092130Z 14008KT 31/10 A3028 RMK A01 T03120103  RH  028%=      5-min Rain = 0
KAD1 092131Z 15012KT 31/10 A3028 RMK A01 T03130099  RH  027%=      5-min Rain = 0
KAD1 092132Z 15011KT 32/10 A3028 RMK A01 T03150099  RH  026%=      5-min Rain = 0
KAD1 092133Z 16006KT 31/10 A3028 RMK A01 T03140096  RH  026%=      5-min Rain = 0
KAD1 092134Z 16007G12KT 31/10 A3028 RMK A01 T03120096  RH  026%=      5-min Rain = 0
KAD1 092135Z 17011KT 31/10 A3028 RMK A01 T03110097  RH  026%=      5-min Rain = 0
KAD1 092136Z 15009KT 31/09 A3028 RMK A01 T03120091  RH  026%=      5-min Rain = 0
KAD1 092137Z 17006KT 31/09 A3028 RMK A01 T03120092  RH  026%=      5-min Rain = 0
KAD1 092138Z 16005KT 31/09 A3028 RMK A01 T03110091  RH  026%=      5-min Rain = 0
KAD1 092139Z 15005KT 31/09 A3028 RMK A01 T03100093  RH  026%=      5-min Rain = 0
KAD1 092140Z 16009KT 31/10 A3028 RMK A01 T03100098  RH  027%=      5-min Rain = 0
KAD1 092141Z 15007G12KT 31/10 A3028 RMK A01 T03100095  RH  026%=      5-min Rain = 0
KAD1 092142Z 17012KT 31/10 A3028 RMK A01 T03090099  RH  027%=      5-min Rain = 0
KAD1 092143Z 16011KT 31/10 A3028 RMK A01 T03090102  RH  028%=      5-min Rain = 0
KAD1 092144Z 15010KT 31/10 A3028 RMK A01 T03090103  RH  028%=      5-min Rain = 0
KAD1 092145Z 16007KT 31/10 A3028 RMK A01 T03080102  RH  028%=      5-min Rain = 0
KAD1 092146Z 19004KT 31/10 A3028 RMK A01 T03070100  RH  028%=      5-min Rain = 0
KAD1 092147Z 19004KT 31/10 A3028 RMK A01 T03080099  RH  027%=      5-min Rain = 0
KAD1 092148Z 16009KT 31/10 A3028 RMK A01 T03090103  RH  028%=      5-min Rain = 0
KAD1 092149Z 15006KT 31/10 A3028 RMK A01 T03110101  RH  027%=      5-min Rain = 0
KAD1 092150Z 15005KT 31/10 A3028 RMK A01 T03110103  RH  028%=      5-min Rain = 0
KAD1 092151Z 15006KT 31/11 A3028 RMK A01 T03120105  RH  028%=      5-min Rain = 0
KAD1 092152Z 13009KT 31/10 A3028 RMK A01 T03140102  RH  027%=      5-min Rain = 0
KAD1 092153Z 15008KT 31/10 A3027 RMK A01 T03140100  RH  027%=      5-min Rain = 0
KAD1 092154Z 14008KT 31/10 A3027 RMK A01 T03140100  RH  027%=      5-min Rain = 0
KAD1 092155Z 12006G12KT 31/10 A3027 RMK A01 T03130099  RH  027%=      5-min Rain = 0
KAD1 092156Z 12012KT 31/09 A3027 RMK A01 T03110093  RH  026%=      5-min Rain = 0
KAD1 092157Z 13012KT 31/10 A3027 RMK A01 T03070095  RH  027%=      5-min Rain = 0
KAD1 092158Z 12009KT 31/10 A3027 RMK A01 T03050097  RH  028%=      5-min Rain = 0
KAD1 092159Z 12007KT 30/10 A3028 RMK A01 T03030098  RH  028%=      5-min Rain = 0
KAD1 092200Z 12005KT 30/10 A3027 RMK A01 T03030101  RH  029%=      5-min Rain = 0
KAD1 092201Z 09007KT 30/10 A3027 RMK A01 T03030103  RH  029%=      5-min Rain = 0
KAD1 092202Z 11008KT 30/10 A3027 RMK A01 T03030104  RH  029%=      5-min Rain = 0
KAD1 092203Z 11007KT 31/10 A3027 RMK A01 T03050104  RH  029%=      5-min Rain = 0
KAD1 092204Z 09003KT 31/11 A3027 RMK A01 T03050105  RH  029%=      5-min Rain = 0
KAD1 092205Z 12007KT 31/11 A3027 RMK A01 T03060106  RH  029%=      5-min Rain = 0
KAD1 092206Z 14008KT 31/11 A3027 RMK A01 T03090108  RH  029%=      5-min Rain = 0
KAD1 092207Z 12008KT 31/11 A3027 RMK A01 T03110108  RH  029%=      5-min Rain = 0
KAD1 092208Z 13007KT 31/11 A3027 RMK A01 T03130111  RH  029%=      5-min Rain = 0
KAD1 092209Z 11006KT 32/11 A3027 RMK A01 T03150111  RH  029%=      5-min Rain = 0
KAD1 092210Z 12005KT 31/11 A3027 RMK A01 T03140111  RH  029%=      5-min Rain = 0
KAD1 092211Z 16006KT 31/11 A3027 RMK A01 T03140111  RH  029%=      5-min Rain = 0
KAD1 092212Z 16007KT 32/11 A3027 RMK A01 T03180110  RH  028%=      5-min Rain = 0
KAD1 092213Z 18006KT 32/10 A3027 RMK A01 T03190104  RH  027%=      5-min Rain = 0
KAD1 092214Z 16007KT 32/10 A3027 RMK A01 T03160104  RH  027%=      5-min Rain = 0
KAD1 092215Z 16009KT 31/10 A3027 RMK A01 T03140104  RH  027%=      5-min Rain = 0
KAD1 092216Z 16012KT 32/10 A3027 RMK A01 T03150101  RH  027%=      5-min Rain = 0
KAD1 092217Z 15013KT 32/10 A3027 RMK A01 T03170099  RH  026%=      5-min Rain = 0
KAD1 092218Z 14013KT 32/10 A3027 RMK A01 T03180096  RH  025%=      5-min Rain = 0
KAD1 092219Z 14010KT 32/09 A3027 RMK A01 T03160093  RH  025%=      5-min Rain = 0
KAD1 092220Z 12009KT 31/09 A3027 RMK A01 T03140092  RH  025%=      5-min Rain = 0
KAD1 092221Z 12009KT 31/09 A3027 RMK A01 T03130093  RH  025%=      5-min Rain = 0
KAD1 092222Z 14008KT 31/10 A3027 RMK A01 T03140095  RH  026%=      5-min Rain = 0
KAD1 092223Z 14008KT 32/10 A3027 RMK A01 T03150095  RH  026%=      5-min Rain = 0
KAD1 092224Z 14007KT 32/10 A3027 RMK A01 T03160095  RH  026%=      5-min Rain = 0
KAD1 092225Z 14006KT 32/09 A3027 RMK A01 T03150093  RH  025%=      5-min Rain = 0
KAD1 092226Z 14007KT 31/10 A3027 RMK A01 T03130096  RH  026%=      5-min Rain = 0
KAD1 092227Z 16006KT 31/10 A3027 RMK A01 T03120099  RH  027%=      5-min Rain = 0
KAD1 092228Z 13006KT 31/10 A3027 RMK A01 T03110100  RH  027%=      5-min Rain = 0
KAD1 092229Z 11008KT 31/10 A3027 RMK A01 T03130100  RH  027%=      5-min Rain = 0
KAD1 092230Z 09007KT 31/10 A3027 RMK A01 T03130098  RH  027%=      5-min Rain = 0
KAD1 092231Z 09006KT 31/10 A3027 RMK A01 T03120100  RH  027%=      5-min Rain = 0
KAD1 092232Z 12007KT 31/10 A3027 RMK A01 T03110100  RH  027%=      5-min Rain = 0
KAD1 092233Z 14003KT 31/10 A3027 RMK A01 T03110099  RH  027%=      5-min Rain = 0
KAD1 092234Z 14003KT 31/10 A3027 RMK A01 T03100101  RH  027%=      5-min Rain = 0
KAD1 092235Z 14003KT 31/10 A3027 RMK A01 T03110102  RH  027%=      5-min Rain = 0
KAD1 092236Z 14005KT 31/10 A3027 RMK A01 T03140104  RH  027%=      5-min Rain = 0
KAD1 092237Z 14005KT 32/10 A3027 RMK A01 T03150103  RH  027%=      5-min Rain = 0
KAD1 092238Z 16004KT 32/10 A3027 RMK A01 T03150104  RH  027%=      5-min Rain = 0
KAD1 092239Z 13004KT 32/10 A3027 RMK A01 T03150103  RH  027%=      5-min Rain = 0
KAD1 092240Z 13004G9KT 32/10 A3027 RMK A01 T03160104  RH  027%=      5-min Rain = 0
KAD1 092241Z 12008KT 32/11 A3027 RMK A01 T03170105  RH  027%=      5-min Rain = 0
KAD1 092242Z 11008KT 32/10 A3027 RMK A01 T03160104  RH  027%=      5-min Rain = 0
KAD1 092243Z 13009KT 32/11 A3027 RMK A01 T03160105  RH  027%=      5-min Rain = 0
KAD1 092244Z 13007KT 32/10 A3027 RMK A01 T03180103  RH  027%=      5-min Rain = 0
KAD1 092245Z 14005KT 32/10 A3027 RMK A01 T03170104  RH  027%=      5-min Rain = 0
KAD1 092246Z 11007KT 32/10 A3027 RMK A01 T03150104  RH  027%=      5-min Rain = 0
KAD1 092247Z 10007KT 32/10 A3027 RMK A01 T03160104  RH  027%=      5-min Rain = 0
KAD1 092248Z 11007KT 32/11 A3027 RMK A01 T03160106  RH  027%=      5-min Rain = 0
KAD1 092249Z 13008KT 32/11 A3027 RMK A01 T03160105  RH  027%=      5-min Rain = 0
KAD1 092250Z 13008KT 32/10 A3027 RMK A01 T03160104  RH  027%=      5-min Rain = 0
KAD1 092251Z 12014KT 31/10 A3027 RMK A01 T03140104  RH  027%=      5-min Rain = 0
KAD1 092252Z 13013KT 32/10 A3027 RMK A01 T03160103  RH  027%=      5-min Rain = 0
KAD1 092253Z 14012KT 32/11 A3027 RMK A01 T03180105  RH  027%=      5-min Rain = 0
KAD1 092254Z 14010KT 32/10 A3027 RMK A01 T03190104  RH  027%=      5-min Rain = 0
KAD1 092255Z 15009KT 32/11 A3027 RMK A01 T03190105  RH  027%=      5-min Rain = 0
KAD1 092256Z 12007KT 32/10 A3027 RMK A01 T03160102  RH  027%=      5-min Rain = 0
KAD1 092257Z 13011KT 32/10 A3027 RMK A01 T03150103  RH  027%=      5-min Rain = 0
KAD1 092258Z 12005KT 32/10 A3027 RMK A01 T03150101  RH  027%=      5-min Rain = 0
KAD1 092259Z 13008KT 31/10 A3027 RMK A01 T03140102  RH  027%=      5-min Rain = 0
KAD1 092300Z 14011KT 32/10 A3027 RMK A01 T03170104  RH  027%=      5-min Rain = 0
KAD1 092301Z 13009KT 32/10 A3027 RMK A01 T03170103  RH  027%=      5-min Rain = 0
KAD1 092302Z 14005KT 31/10 A3027 RMK A01 T03140103  RH  027%=      5-min Rain = 0
KAD1 092303Z 13006KT 31/10 A3027 RMK A01 T03120102  RH  027%=      5-min Rain = 0
KAD1 092304Z 11008KT 31/10 A3027 RMK A01 T03130102  RH  027%=      5-min Rain = 0
KAD1 092305Z 10010KT 31/10 A3026 RMK A01 T03140102  RH  027%=      5-min Rain = 0
KAD1 092306Z 11005KT 31/10 A3027 RMK A01 T03110102  RH  027%=      5-min Rain = 0
KAD1 092307Z 11004KT 31/10 A3027 RMK A01 T03080099  RH  027%=      5-min Rain = 0
KAD1 092308Z 11005KT 31/10 A3027 RMK A01 T03060098  RH  028%=      5-min Rain = 0
KAD1 092309Z 11007KT 31/10 A3026 RMK A01 T03050099  RH  028%=      5-min Rain = 0
KAD1 092310Z 10005KT 31/10 A3026 RMK A01 T03060101  RH  028%=      5-min Rain = 0
KAD1 092311Z 08004KT 31/10 A3026 RMK A01 T03060102  RH  028%=      5-min Rain = 0
KAD1 092312Z 10006KT 31/11 A3026 RMK A01 T03070105  RH  029%=      5-min Rain = 0
KAD1 092313Z 12005KT 31/10 A3026 RMK A01 T03100103  RH  028%=      5-min Rain = 0
KAD1 092314Z 14005KT 31/10 A3026 RMK A01 T03100102  RH  028%=      5-min Rain = 0
KAD1 092315Z 15011KT 31/10 A3026 RMK A01 T03090103  RH  028%=      5-min Rain = 0
KAD1 092316Z 15009KT 31/10 A3026 RMK A01 T03080100  RH  028%=      5-min Rain = 0
KAD1 092317Z 15011KT 31/10 A3026 RMK A01 T03070099  RH  028%=      5-min Rain = 0
KAD1 092318Z 14011KT 31/10 A3026 RMK A01 T03060095  RH  027%=      5-min Rain = 0
KAD1 092319Z 13011KT 31/09 A3026 RMK A01 T03070089  RH  026%=      5-min Rain = 0
KAD1 092320Z 13010KT 31/09 A3026 RMK A01 T03080086  RH  025%=      5-min Rain = 0
KAD1 092321Z 13009KT 31/08 A3026 RMK A01 T03070084  RH  025%=      5-min Rain = 0
KAD1 092322Z 14008KT 31/09 A3027 RMK A01 T03080085  RH  025%=      5-min Rain = 0
KAD1 092323Z 12008KT 31/09 A3027 RMK A01 T03090086  RH  025%=      5-min Rain = 0
KAD1 092324Z 11005KT 31/09 A3027 RMK A01 T03110088  RH  025%=      5-min Rain = 0
KAD1 092325Z 10005KT 31/09 A3026 RMK A01 T03100090  RH  026%=      5-min Rain = 0
KAD1 092326Z 09004KT 31/09 A3026 RMK A01 T03110093  RH  026%=      5-min Rain = 0
KAD1 092327Z 12006KT 31/09 A3026 RMK A01 T03120092  RH  026%=      5-min Rain = 0
KAD1 092328Z 13006KT 31/09 A3026 RMK A01 T03120093  RH  026%=      5-min Rain = 0
KAD1 092329Z 16006KT 31/09 A3026 RMK A01 T03120093  RH  026%=      5-min Rain = 0
KAD1 092330Z 16007KT 31/09 A3026 RMK A01 T03130093  RH  026%=      5-min Rain = 0
KAD1 092331Z 16008KT 32/09 A3026 RMK A01 T03150093  RH  025%=      5-min Rain = 0
KAD1 092332Z 16007KT 32/09 A3026 RMK A01 T03150090  RH  025%=      5-min Rain = 0
KAD1 092333Z 15010KT 32/09 A3026 RMK A01 T03150094  RH  026%=      5-min Rain = 0
KAD1 092334Z 15009KT 31/10 A3026 RMK A01 T03140098  RH  026%=      5-min Rain = 0
KAD1 092335Z 16008KT 31/10 A3026 RMK A01 T03140101  RH  027%=      5-min Rain = 0
KAD1 092336Z 15005KT 31/10 A3026 RMK A01 T03140098  RH  026%=      5-min Rain = 0
KAD1 092337Z 15007KT 31/10 A3026 RMK A01 T03130098  RH  027%=      5-min Rain = 0
KAD1 092338Z 14005KT 31/09 A3026 RMK A01 T03120093  RH  026%=      5-min Rain = 0
KAD1 092339Z 14005KT 31/09 A3026 RMK A01 T03130093  RH  026%=      5-min Rain = 0
KAD1 092340Z 13004KT 31/09 A3026 RMK A01 T03140093  RH  026%=      5-min Rain = 0
KAD1 092341Z 14003KT 31/09 A3026 RMK A01 T03130091  RH  025%=      5-min Rain = 0
KAD1 092342Z 16005KT 31/10 A3026 RMK A01 T03130095  RH  026%=      5-min Rain = 0
KAD1 092343Z 15007KT 31/10 A3026 RMK A01 T03130101  RH  027%=      5-min Rain = 0
KAD1 092344Z 16010KT 32/10 A3026 RMK A01 T03160102  RH  027%=      5-min Rain = 0
KAD1 092345Z 17010KT 32/10 A3026 RMK A01 T03170100  RH  026%=      5-min Rain = 0
KAD1 092346Z 17007KT 32/10 A3026 RMK A01 T03160098  RH  026%=      5-min Rain = 0
KAD1 092347Z 18007KT 32/10 A3026 RMK A01 T03150099  RH  026%=      5-min Rain = 0
KAD1 092348Z 16008KT 32/10 A3026 RMK A01 T03160101  RH  027%=      5-min Rain = 0
KAD1 092349Z 16007KT 32/10 A3026 RMK A01 T03170104  RH  027%=      5-min Rain = 0
KAD1 092350Z 16008KT 32/10 A3026 RMK A01 T03160101  RH  027%=      5-min Rain = 0
KAD1 092351Z 15007KT 32/10 A3026 RMK A01 T03150101  RH  027%=      5-min Rain = 0
KAD1 092352Z 17005KT 32/10 A3026 RMK A01 T03150100  RH  026%=      5-min Rain = 0
KAD1 092353Z 17006KT 31/10 A3026 RMK A01 T03140100  RH  027%=      5-min Rain = 0
KAD1 092354Z 13005KT 31/10 A3025 RMK A01 T03140104  RH  027%=      5-min Rain = 0
KAD1 092355Z 13006KT 32/11 A3026 RMK A01 T03170106  RH  027%=      5-min Rain = 0
KAD1 092356Z 11008KT 32/11 A3026 RMK A01 T03170105  RH  027%=      5-min Rain = 0
KAD1 092357Z 11007KT 32/11 A3026 RMK A01 T03150105  RH  027%=      5-min Rain = 0
KAD1 092358Z 14007KT 32/11 A3026 RMK A01 T03150106  RH  028%=      5-min Rain = 0
KAD1 092359Z 12007KT 32/11 A3026 RMK A01 T03170107  RH  027%=      5-min Rain = 0
KAD1 100000Z 11008KT 32/10 A3026 RMK A01 T03190104  RH  027%=      5-min Rain = 0
KAD1 100001Z 11010KT 32/10 A3025 RMK A01 T03180101  RH  026%=      5-min Rain = 0
KAD1 100002Z 11011KT 32/10 A3025 RMK A01 T03170096  RH  026%=      5-min Rain = 0
KAD1 100003Z 10010KT 32/10 A3025 RMK A01 T03150097  RH  026%=      5-min Rain = 0
KAD1 100004Z 09007KT 31/10 A3026 RMK A01 T03130098  RH  026%=      5-min Rain = 0
KAD1 100005Z 11007KT 31/10 A3026 RMK A01 T03110099  RH  027%=      5-min Rain = 0
KAD1 100006Z 11009KT 31/10 A3026 RMK A01 T03110099  RH  027%=      5-min Rain = 0
KAD1 100007Z 12008KT 31/10 A3026 RMK A01 T03120099  RH  027%=      5-min Rain = 0
KAD1 100008Z 12009KT 31/10 A3026 RMK A01 T03110099  RH  027%=      5-min Rain = 0
KAD1 100009Z 12009KT 31/10 A3025 RMK A01 T03100098  RH  027%=      5-min Rain = 0
KAD1 100010Z 12010KT 31/10 A3025 RMK A01 T03120097  RH  027%=      5-min Rain = 0
KAD1 100011Z 12008KT 31/10 A3025 RMK A01 T03120098  RH  027%=      5-min Rain = 0
KAD1 100012Z 12010KT 31/10 A3025 RMK A01 T03130098  RH  027%=      5-min Rain = 0
KAD1 100013Z 11009KT 31/10 A3025 RMK A01 T03130099  RH  027%=      5-min Rain = 0
KAD1 100014Z 12007KT 31/10 A3025 RMK A01 T03110099  RH  027%=      5-min Rain = 0
KAD1 100015Z 10007KT 31/10 A3025 RMK A01 T03100099  RH  027%=      5-min Rain = 0
KAD1 100016Z 09008KT 31/10 A3025 RMK A01 T03090099  RH  027%=      5-min Rain = 0
KAD1 100017Z 09007KT 31/10 A3025 RMK A01 T03080100  RH  028%=      5-min Rain = 0
KAD1 100018Z 10006KT 31/10 A3025 RMK A01 T03070100  RH  028%=      5-min Rain = 0
KAD1 100019Z 12008KT 31/10 A3025 RMK A01 T03070101  RH  028%=      5-min Rain = 0
KAD1 100020Z 10009KT 31/10 A3025 RMK A01 T03080104  RH  028%=      5-min Rain = 0
KAD1 100021Z 10010KT 31/10 A3025 RMK A01 T03090104  RH  028%=      5-min Rain = 0
KAD1 100022Z 11009KT 31/10 A3025 RMK A01 T03090102  RH  028%=      5-min Rain = 0
KAD1 100023Z 11009KT 31/10 A3025 RMK A01 T03090102  RH  028%=      5-min Rain = 0
KAD1 100024Z 10009KT 31/10 A3025 RMK A01 T03100101  RH  027%=      5-min Rain = 0
KAD1 100025Z 11010KT 31/10 A3025 RMK A01 T03100100  RH  027%=      5-min Rain = 0
KAD1 100026Z 12010KT 31/10 A3025 RMK A01 T03100101  RH  027%=      5-min Rain = 0
KAD1 100027Z 12011KT 31/10 A3025 RMK A01 T03110098  RH  027%=      5-min Rain = 0
KAD1 100028Z 11009KT 31/10 A3025 RMK A01 T03120097  RH  027%=      5-min Rain = 0
KAD1 100029Z 11007KT 31/10 A3025 RMK A01 T03100097  RH  027%=      5-min Rain = 0
KAD1 100030Z 10008KT 31/10 A3025 RMK A01 T03080097  RH  027%=      5-min Rain = 0
KAD1 100031Z 09008KT 31/10 A3025 RMK A01 T03080099  RH  027%=      5-min Rain = 0
KAD1 100032Z 08008KT 31/10 A3025 RMK A01 T03070100  RH  028%=      5-min Rain = 0
KAD1 100033Z 09007KT 31/10 A3025 RMK A01 T03070100  RH  028%=      5-min Rain = 0
KAD1 100034Z 10007KT 31/10 A3025 RMK A01 T03070101  RH  028%=      5-min Rain = 0
KAD1 100035Z 10006KT 31/10 A3025 RMK A01 T03080100  RH  028%=      5-min Rain = 0
KAD1 100036Z 10007KT 31/10 A3025 RMK A01 T03080099  RH  027%=      5-min Rain = 0
KAD1 100037Z 10005KT 31/10 A3025 RMK A01 T03080101  RH  028%=      5-min Rain = 0
KAD1 100038Z 11005KT 31/10 A3025 RMK A01 T03090101  RH  028%=      5-min Rain = 0
KAD1 100039Z 11007KT 31/10 A3025 RMK A01 T03100101  RH  027%=      5-min Rain = 0
KAD1 100040Z 12006KT 31/10 A3025 RMK A01 T03120101  RH  027%=      5-min Rain = 0
KAD1 100041Z 11005KT 31/10 A3025 RMK A01 T03110102  RH  027%=      5-min Rain = 0
KAD1 100042Z 10007KT 31/10 A3025 RMK A01 T03110103  RH  028%=      5-min Rain = 0
KAD1 100043Z 09007KT 31/10 A3025 RMK A01 T03120104  RH  028%=      5-min Rain = 0
KAD1 100044Z 11007KT 31/10 A3025 RMK A01 T03100104  RH  028%=      5-min Rain = 0
KAD1 100045Z 10007KT 31/10 A3025 RMK A01 T03080103  RH  028%=      5-min Rain = 0
KAD1 100046Z 10006KT 31/10 A3025 RMK A01 T03060102  RH  028%=      5-min Rain = 0
KAD1 100047Z 10007KT 31/10 A3025 RMK A01 T03050102  RH  028%=      5-min Rain = 0
KAD1 100048Z 12011KT 31/11 A3026 RMK A01 T03070106  RH  029%=      5-min Rain = 0
KAD1 100049Z 13016KT 31/12 A3026 RMK A01 T03080119  RH  031%=      5-min Rain = 0
KAD1 100050Z 14017KT 31/12 A3025 RMK A01 T03070123  RH  032%=      5-min Rain = 0
KAD1 100051Z 14019KT 31/13 A3025 RMK A01 T03060125  RH  033%=      5-min Rain = 0
KAD1 100052Z 15020KT 30/13 A3025 RMK A01 T03040125  RH  033%=      5-min Rain = 0
KAD1 100053Z 14020KT 30/12 A3025 RMK A01 T03030124  RH  033%=      5-min Rain = 0
KAD1 100054Z 14017KT 30/13 A3025 RMK A01 T03020125  RH  034%=      5-min Rain = 0
KAD1 100055Z 14017KT 30/13 A3025 RMK A01 T03020125  RH  034%=      5-min Rain = 0
KAD1 100056Z 13016KT 30/13 A3025 RMK A01 T03010125  RH  034%=      5-min Rain = 0
KAD1 100057Z 13019KT 30/12 A3025 RMK A01 T03010123  RH  033%=      5-min Rain = 0
KAD1 100058Z 13018KT 30/12 A3025 RMK A01 T03010123  RH  033%=      5-min Rain = 0
KAD1 100059Z 13018KT 30/12 A3025 RMK A01 T03000122  RH  034%=      5-min Rain = 0
KAD1 100100Z 13020KT 30/12 A3025 RMK A01 T03000122  RH  034%=      5-min Rain = 0
KAD1 100101Z 14019KT 30/12 A3025 RMK A01 T02990123  RH  034%=      5-min Rain = 0
KAD1 100102Z 14020KT 30/12 A3025 RMK A01 T02990122  RH  034%=      5-min Rain = 0
KAD1 100103Z 13018KT 30/12 A3025 RMK A01 T02990123  RH  034%=      5-min Rain = 0
KAD1 100104Z 13017KT 30/12 A3025 RMK A01 T02980124  RH  034%=      5-min Rain = 0
KAD1 100105Z 14020KT 30/12 A3025 RMK A01 T02980123  RH  034%=      5-min Rain = 0
KAD1 100106Z 14017KT 30/12 A3025 RMK A01 T02980123  RH  034%=      5-min Rain = 0
KAD1 100107Z 13018KT 30/12 A3025 RMK A01 T02970123  RH  034%=      5-min Rain = 0
KAD1 100108Z 13018KT 30/12 A3025 RMK A01 T02970123  RH  034%=      5-min Rain = 0
KAD1 100109Z 13015KT 30/12 A3025 RMK A01 T02970124  RH  034%=      5-min Rain = 0
KAD1 100110Z 13017KT 30/12 A3025 RMK A01 T02980124  RH  034%=      5-min Rain = 0
KAD1 100111Z 13018KT 30/12 A3025 RMK A01 T02980124  RH  034%=      5-min Rain = 0
KAD1 100112Z 13016KT 30/12 A3025 RMK A01 T02970124  RH  034%=      5-min Rain = 0
KAD1 100113Z 14019KT 30/12 A3025 RMK A01 T02970124  RH  034%=      5-min Rain = 0
KAD1 100114Z 14018KT 30/12 A3025 RMK A01 T02960123  RH  034%=      5-min Rain = 0
KAD1 100115Z 14020KT 30/12 A3025 RMK A01 T02950123  RH  035%=      5-min Rain = 0
KAD1 100116Z 14019KT 29/12 A3025 RMK A01 T02940124  RH  035%=      5-min Rain = 0
KAD1 100117Z 13020KT 29/12 A3025 RMK A01 T02940123  RH  035%=      5-min Rain = 0
KAD1 100118Z 14019KT 29/12 A3025 RMK A01 T02940123  RH  035%=      5-min Rain = 0
KAD1 100119Z 14016KT 29/12 A3026 RMK A01 T02930123  RH  035%=      5-min Rain = 0
KAD1 100120Z 14016KT 29/12 A3026 RMK A01 T02930123  RH  035%=      5-min Rain = 0
KAD1 100121Z 14017KT 29/12 A3026 RMK A01 T02930123  RH  035%=      5-min Rain = 0
KAD1 100122Z 14017KT 29/12 A3026 RMK A01 T02930123  RH  035%=      5-min Rain = 0
KAD1 100123Z 13015KT 29/12 A3026 RMK A01 T02930123  RH  035%=      5-min Rain = 0
KAD1 100124Z 13017KT 29/12 A3026 RMK A01 T02930124  RH  035%=      5-min Rain = 0
KAD1 100125Z 13018KT 29/12 A3026 RMK A01 T02920123  RH  035%=      5-min Rain = 0
KAD1 100126Z 14016KT 29/12 A3026 RMK A01 T02920123  RH  035%=      5-min Rain = 0
KAD1 100127Z 14014KT 29/12 A3026 RMK A01 T02920123  RH  035%=      5-min Rain = 0
KAD1 100128Z 14016KT 29/12 A3026 RMK A01 T02920123  RH  035%=      5-min Rain = 0
KAD1 100129Z 14014KT 29/12 A3026 RMK A01 T02920123  RH  035%=      5-min Rain = 0
KAD1 100130Z 14015KT 29/12 A3026 RMK A01 T02910123  RH  035%=      5-min Rain = 0
KAD1 100131Z 14015KT 29/12 A3026 RMK A01 T02900123  RH  036%=      5-min Rain = 0
KAD1 100132Z 14017KT 29/12 A3026 RMK A01 T02900123  RH  036%=      5-min Rain = 0
KAD1 100133Z 14016KT 29/12 A3026 RMK A01 T02900123  RH  036%=      5-min Rain = 0
KAD1 100134Z 14014KT 29/12 A3026 RMK A01 T02890123  RH  036%=      5-min Rain = 0
KAD1 100135Z 14016KT 29/12 A3026 RMK A01 T02890122  RH  036%=      5-min Rain = 0
KAD1 100136Z 14015KT 29/12 A3027 RMK A01 T02890123  RH  036%=      5-min Rain = 0
KAD1 100137Z 14016KT 29/12 A3027 RMK A01 T02890122  RH  036%=      5-min Rain = 0
KAD1 100138Z 14015KT 29/12 A3027 RMK A01 T02880123  RH  036%=      5-min Rain = 0
KAD1 100139Z 14016KT 29/12 A3027 RMK A01 T02870123  RH  036%=      5-min Rain = 0
KAD1 100140Z 14016KT 29/12 A3027 RMK A01 T02870123  RH  036%=      5-min Rain = 0
KAD1 100141Z 14015KT 29/12 A3027 RMK A01 T02860123  RH  036%=      5-min Rain = 0
KAD1 100142Z 14015KT 29/12 A3027 RMK A01 T02860123  RH  036%=      5-min Rain = 0
KAD1 100143Z 14014KT 29/12 A3027 RMK A01 T02860123  RH  036%=      5-min Rain = 0
KAD1 100144Z 14015KT 29/12 A3027 RMK A01 T02860123  RH  037%=      5-min Rain = 0
KAD1 100145Z 14016KT 29/12 A3027 RMK A01 T02850123  RH  037%=      5-min Rain = 0
KAD1 100146Z 14015KT 29/12 A3027 RMK A01 T02850123  RH  037%=      5-min Rain = 0
KAD1 100147Z 14015KT 28/12 A3027 RMK A01 T02840123  RH  037%=      5-min Rain = 0
KAD1 100148Z 14015KT 28/12 A3027 RMK A01 T02840124  RH  037%=      5-min Rain = 0
KAD1 100149Z 14016KT 28/12 A3027 RMK A01 T02840124  RH  037%=      5-min Rain = 0
KAD1 100150Z 14015KT 28/12 A3027 RMK A01 T02830124  RH  037%=      5-min Rain = 0
KAD1 100156Z 14015KT 28/12 A3027 RMK A01 T02810124  RH  038%=      5-min Rain = 0
KAD1 100157Z 14012KT 28/12 A3027 RMK A01 T02810124  RH  038%=      5-min Rain = 0
KAD1 100158Z 14014KT 28/12 A3027 RMK A01 T02810124  RH  038%=      5-min Rain = 0
KAD1 100159Z 14015KT 28/12 A3027 RMK A01 T02800124  RH  038%=      5-min Rain = 0
KAD1 100200Z 14015KT 28/12 A3027 RMK A01 T02800124  RH  038%=      5-min Rain = 0
KAD1 100201Z 14015KT 28/12 A3027 RMK A01 T02800124  RH  038%=      5-min Rain = 0
KAD1 100202Z 14014KT 28/12 A3027 RMK A01 T02800124  RH  038%=      5-min Rain = 0
KAD1 100203Z 14014KT 28/12 A3027 RMK A01 T02800124  RH  038%=      5-min Rain = 0
KAD1 100204Z 14016KT 28/12 A3027 RMK A01 T02790124  RH  038%=      5-min Rain = 0
KAD1 100205Z 14014KT 28/12 A3027 RMK A01 T02790124  RH  038%=      5-min Rain = 0
KAD1 100206Z 14013KT 28/12 A3027 RMK A01 T02790123  RH  038%=      5-min Rain = 0
KAD1 100207Z 14014KT 28/12 A3027 RMK A01 T02790124  RH  038%=      5-min Rain = 0
KAD1 100208Z 14013KT 28/12 A3027 RMK A01 T02790124  RH  038%=      5-min Rain = 0
KAD1 100209Z 14012KT 28/12 A3027 RMK A01 T02780124  RH  038%=      5-min Rain = 0
KAD1 100210Z 15012KT 28/12 A3027 RMK A01 T02780123  RH  038%=      5-min Rain = 0
KAD1 100211Z 14012KT 28/12 A3027 RMK A01 T02780124  RH  038%=      5-min Rain = 0
KAD1 100212Z 14013KT 28/12 A3027 RMK A01 T02780124  RH  038%=      5-min Rain = 0
KAD1 100213Z 14012KT 28/12 A3027 RMK A01 T02780123  RH  038%=      5-min Rain = 0
KAD1 100214Z 14013KT 28/12 A3027 RMK A01 T02780124  RH  038%=      5-min Rain = 0
KAD1 100215Z 14014KT 28/12 A3027 RMK A01 T02780123  RH  038%=      5-min Rain = 0
KAD1 100216Z 14014KT 28/12 A3027 RMK A01 T02780123  RH  038%=      5-min Rain = 0
KAD1 100217Z 15014KT 28/12 A3027 RMK A01 T02780123  RH  038%=      5-min Rain = 0
KAD1 100218Z 15014KT 28/12 A3027 RMK A01 T02780123  RH  038%=      5-min Rain = 0
KAD1 100219Z 15014KT 28/12 A3027 RMK A01 T02780124  RH  038%=      5-min Rain = 0
KAD1 100220Z 15013KT 28/12 A3027 RMK A01 T02780123  RH  038%=      5-min Rain = 0
KAD1 100221Z 15014KT 28/12 A3027 RMK A01 T02780123  RH  038%=      5-min Rain = 0
KAD1 100222Z 15014KT 28/12 A3028 RMK A01 T02770123  RH  038%=      5-min Rain = 0
KAD1 100223Z 15014KT 28/12 A3028 RMK A01 T02770123  RH  038%=      5-min Rain = 0
KAD1 100224Z 15014KT 28/12 A3028 RMK A01 T02780123  RH  038%=      5-min Rain = 0
KAD1 100225Z 14014KT 28/12 A3028 RMK A01 T02770123  RH  038%=      5-min Rain = 0
KAD1 100226Z 14015KT 28/12 A3028 RMK A01 T02770122  RH  038%=      5-min Rain = 0
KAD1 100227Z 15013KT 28/12 A3028 RMK A01 T02770122  RH  038%=      5-min Rain = 0
KAD1 100228Z 14012KT 28/12 A3028 RMK A01 T02770122  RH  038%=      5-min Rain = 0
KAD1 100229Z 15014KT 28/12 A3028 RMK A01 T02770122  RH  038%=      5-min Rain = 0
KAD1 100230Z 14014KT 28/12 A3028 RMK A01 T02770122  RH  038%=      5-min Rain = 0
KAD1 100231Z 15013KT 28/12 A3028 RMK A01 T02760122  RH  038%=      5-min Rain = 0
KAD1 100232Z 14014KT 28/12 A3028 RMK A01 T02760122  RH  038%=      5-min Rain = 0
KAD1 100233Z 15013KT 28/12 A3028 RMK A01 T02760122  RH  039%=      5-min Rain = 0
KAD1 100234Z 15015KT 28/12 A3028 RMK A01 T02760122  RH  039%=      5-min Rain = 0
KAD1 100235Z 15014KT 28/12 A3028 RMK A01 T02750122  RH  039%=      5-min Rain = 0
KAD1 100236Z 15013KT 28/12 A3028 RMK A01 T02750123  RH  039%=      5-min Rain = 0
KAD1 100237Z 15012KT 27/12 A3028 RMK A01 T02740122  RH  039%=      5-min Rain = 0
KAD1 100238Z 15014KT 27/12 A3028 RMK A01 T02740122  RH  039%=      5-min Rain = 0
KAD1 100239Z 15013KT 27/12 A3028 RMK A01 T02740123  RH  039%=      5-min Rain = 0
KAD1 100240Z 14013KT 27/12 A3028 RMK A01 T02740122  RH  039%=      5-min Rain = 0
KAD1 100241Z 15013KT 27/12 A3028 RMK A01 T02740122  RH  039%=      5-min Rain = 0
KAD1 100242Z 15014KT 27/12 A3028 RMK A01 T02730122  RH  039%=      5-min Rain = 0
KAD1 100243Z 14014KT 27/12 A3028 RMK A01 T02730122  RH  039%=      5-min Rain = 0
KAD1 100244Z 15014KT 27/12 A3028 RMK A01 T02730122  RH  039%=      5-min Rain = 0
KAD1 100245Z 15013KT 27/12 A3028 RMK A01 T02730122  RH  039%=      5-min Rain = 0
KAD1 100246Z 14014KT 27/12 A3028 RMK A01 T02720122  RH  039%=      5-min Rain = 0
KAD1 100247Z 15013KT 27/12 A3028 RMK A01 T02720122  RH  039%=      5-min Rain = 0
KAD1 100248Z 15014KT 27/12 A3028 RMK A01 T02720122  RH  039%=      5-min Rain = 0
KAD1 100249Z 15013KT 27/12 A3028 RMK A01 T02710122  RH  039%=      5-min Rain = 0
KAD1 100250Z 14013KT 27/12 A3028 RMK A01 T02710122  RH  039%=      5-min Rain = 0
KAD1 100251Z 14013KT 27/12 A3028 RMK A01 T02710121  RH  039%=      5-min Rain = 0
KAD1 100252Z 14014KT 27/12 A3029 RMK A01 T02710121  RH  040%=      5-min Rain = 0
KAD1 100253Z 14013KT 27/12 A3029 RMK A01 T02700121  RH  040%=      5-min Rain = 0
KAD1 100254Z 14013KT 27/12 A3029 RMK A01 T02700121  RH  040%=      5-min Rain = 0
KAD1 100255Z 14013KT 27/12 A3029 RMK A01 T02690121  RH  040%=      5-min Rain = 0
KAD1 100256Z 14013KT 27/12 A3029 RMK A01 T02690121  RH  040%=      5-min Rain = 0
KAD1 100257Z 15014KT 27/12 A3029 RMK A01 T02680121  RH  040%=      5-min Rain = 0
KAD1 100258Z 15014KT 27/12 A3029 RMK A01 T02680121  RH  040%=      5-min Rain = 0
KAD1 100259Z 14015KT 27/12 A3029 RMK A01 T02680121  RH  040%=      5-min Rain = 0
KAD1 100300Z 15014KT 27/12 A3029 RMK A01 T02680121  RH  040%=      5-min Rain = 0
KAD1 100301Z 15015KT 27/12 A3029 RMK A01 T02670120  RH  040%=      5-min Rain = 0
KAD1 100302Z 15014KT 27/12 A3029 RMK A01 T02670121  RH  040%=      5-min Rain = 0
KAD1 100303Z 15014KT 27/12 A3029 RMK A01 T02660120  RH  040%=      5-min Rain = 0
KAD1 100304Z 15014KT 27/12 A3029 RMK A01 T02660121  RH  040%=      5-min Rain = 0
KAD1 100305Z 15015KT 27/12 A3029 RMK A01 T02650121  RH  041%=      5-min Rain = 0
KAD1 100306Z 15014KT 27/12 A3029 RMK A01 T02650121  RH  041%=      5-min Rain = 0
KAD1 100307Z 15014KT 27/12 A3029 RMK A01 T02650120  RH  041%=      5-min Rain = 0
KAD1 100308Z 15015KT 27/12 A3029 RMK A01 T02650121  RH  041%=      5-min Rain = 0
KAD1 100309Z 15014KT 26/12 A3029 RMK A01 T02640120  RH  041%=      5-min Rain = 0
KAD1 100310Z 15014KT 26/12 A3029 RMK A01 T02640120  RH  041%=      5-min Rain = 0
KAD1 100311Z 15013KT 26/12 A3029 RMK A01 T02640120  RH  041%=      5-min Rain = 0
KAD1 100312Z 15013KT 26/12 A3029 RMK A01 T02630120  RH  041%=      5-min Rain = 0
KAD1 100313Z 15014KT 26/12 A3029 RMK A01 T02620120  RH  041%=      5-min Rain = 0
KAD1 100314Z 15014KT 26/12 A3029 RMK A01 T02620120  RH  041%=      5-min Rain = 0
KAD1 100315Z 15013KT 26/12 A3029 RMK A01 T02620120  RH  041%=      5-min Rain = 0
KAD1 100316Z 15015KT 26/12 A3029 RMK A01 T02610120  RH  041%=      5-min Rain = 0
KAD1 100317Z 15014KT 26/12 A3029 RMK A01 T02610120  RH  041%=      5-min Rain = 0
KAD1 100318Z 15015KT 26/12 A3029 RMK A01 T02600120  RH  042%=      5-min Rain = 0
KAD1 100319Z 15014KT 26/12 A3029 RMK A01 T02600120  RH  042%=      5-min Rain = 0
KAD1 100320Z 15014KT 26/12 A3029 RMK A01 T02600120  RH  042%=      5-min Rain = 0
KAD1 100321Z 15016KT 26/12 A3029 RMK A01 T02590120  RH  042%=      5-min Rain = 0
KAD1 100322Z 15015KT 26/12 A3029 RMK A01 T02590120  RH  042%=      5-min Rain = 0
KAD1 100323Z 15015KT 26/12 A303 RMK A01 T02590119  RH  042%=      5-min Rain = 0
KAD1 100324Z 15015KT 26/12 A303 RMK A01 T02590119  RH  042%=      5-min Rain = 0
KAD1 100325Z 15016KT 26/12 A303 RMK A01 T02590119  RH  042%=      5-min Rain = 0
KAD1 100326Z 15015KT 26/12 A303 RMK A01 T02590119  RH  042%=      5-min Rain = 0
KAD1 100327Z 15015KT 26/12 A303 RMK A01 T02590119  RH  042%=      5-min Rain = 0
KAD1 100328Z 15016KT 26/12 A303 RMK A01 T02580119  RH  042%=      5-min Rain = 0
KAD1 100329Z 15016KT 26/12 A303 RMK A01 T02580119  RH  042%=      5-min Rain = 0
KAD1 100330Z 15016KT 26/12 A303 RMK A01 T02580118  RH  042%=      5-min Rain = 0
KAD1 100331Z 15015KT 26/12 A303 RMK A01 T02580118  RH  042%=      5-min Rain = 0
KAD1 100332Z 15015KT 26/12 A303 RMK A01 T02570118  RH  042%=      5-min Rain = 0
KAD1 100333Z 15016KT 26/12 A303 RMK A01 T02570118  RH  042%=      5-min Rain = 0
KAD1 100334Z 15015KT 26/12 A303 RMK A01 T02570118  RH  042%=      5-min Rain = 0
KAD1 100335Z 15016KT 26/12 A303 RMK A01 T02570118  RH  042%=      5-min Rain = 0
KAD1 100336Z 14015KT 26/12 A303 RMK A01 T02570117  RH  042%=      5-min Rain = 0
KAD1 100337Z 14016KT 26/12 A303 RMK A01 T02570117  RH  042%=      5-min Rain = 0
KAD1 100338Z 14015KT 26/12 A303 RMK A01 T02570117  RH  042%=      5-min Rain = 0
KAD1 100339Z 14015KT 26/12 A303 RMK A01 T02570117  RH  042%=      5-min Rain = 0
KAD1 100340Z 14015KT 26/12 A303 RMK A01 T02560117  RH  042%=      5-min Rain = 0
KAD1 100341Z 14015KT 26/12 A303 RMK A01 T02560117  RH  042%=      5-min Rain = 0
KAD1 100342Z 14015KT 26/12 A303 RMK A01 T02560117  RH  042%=      5-min Rain = 0
KAD1 100343Z 14015KT 26/12 A303 RMK A01 T02550116  RH  042%=      5-min Rain = 0
KAD1 100344Z 14015KT 26/12 A303 RMK A01 T02550116  RH  042%=      5-min Rain = 0
KAD1 100345Z 14014KT 26/12 A303 RMK A01 T02550117  RH  042%=      5-min Rain = 0
KAD1 100346Z 14013KT 25/12 A303 RMK A01 T02540117  RH  042%=      5-min Rain = 0
KAD1 100347Z 14014KT 25/12 A3031 RMK A01 T02530116  RH  042%=      5-min Rain = 0
KAD1 100348Z 14014KT 25/12 A3031 RMK A01 T02530117  RH  042%=      5-min Rain = 0
KAD1 100349Z 14013KT 25/12 A3031 RMK A01 T02530117  RH  043%=      5-min Rain = 0
KAD1 100350Z 14013KT 25/12 A3031 RMK A01 T02530117  RH  043%=      5-min Rain = 0
KAD1 100351Z 14014KT 25/12 A3031 RMK A01 T02520117  RH  043%=      5-min Rain = 0
KAD1 100352Z 14013KT 25/12 A3031 RMK A01 T02520117  RH  043%=      5-min Rain = 0
KAD1 100353Z 14013KT 25/12 A3031 RMK A01 T02510117  RH  043%=      5-min Rain = 0
KAD1 100354Z 14013KT 25/12 A3031 RMK A01 T02510117  RH  043%=      5-min Rain = 0
KAD1 100355Z 14012KT 25/12 A3031 RMK A01 T02500117  RH  043%=      5-min Rain = 0
KAD1 100356Z 14013KT 25/12 A3031 RMK A01 T02500117  RH  043%=      5-min Rain = 0
KAD1 100357Z 14013KT 25/12 A3031 RMK A01 T02490117  RH  043%=      5-min Rain = 0
KAD1 100358Z 14013KT 25/12 A3031 RMK A01 T02490116  RH  043%=      5-min Rain = 0
KAD1 100359Z 14013KT 25/12 A3031 RMK A01 T02490116  RH  043%=      5-min Rain = 0
KAD1 100400Z 14013KT 25/12 A3031 RMK A01 T02480116  RH  044%=      5-min Rain = 0
KAD1 100401Z 14014KT 25/12 A3031 RMK A01 T02480116  RH  044%=      5-min Rain = 0
KAD1 100402Z 14013KT 25/12 A3031 RMK A01 T02480116  RH  044%=      5-min Rain = 0
KAD1 100403Z 14014KT 25/12 A3031 RMK A01 T02470116  RH  044%=      5-min Rain = 0
KAD1 100404Z 14014KT 25/12 A3031 RMK A01 T02460116  RH  044%=      5-min Rain = 0
KAD1 100405Z 14014KT 25/12 A3031 RMK A01 T02460116  RH  044%=      5-min Rain = 0
KAD1 100406Z 14013KT 25/12 A3031 RMK A01 T02460116  RH  044%=      5-min Rain = 0
KAD1 100407Z 14014KT 25/12 A3031 RMK A01 T02470116  RH  044%=      5-min Rain = 0
KAD1 100408Z 14014KT 25/12 A3031 RMK A01 T02460116  RH  044%=      5-min Rain = 0
KAD1 100409Z 14015KT 25/12 A3031 RMK A01 T02460115  RH  044%=      5-min Rain = 0
KAD1 100410Z 14014KT 25/12 A3031 RMK A01 T02470115  RH  044%=      5-min Rain = 0
KAD1 100411Z 14014KT 25/12 A3031 RMK A01 T02470115  RH  044%=      5-min Rain = 0
KAD1 100412Z 14013KT 25/12 A3031 RMK A01 T02470115  RH  044%=      5-min Rain = 0
KAD1 100413Z 14014KT 25/11 A3031 RMK A01 T02460114  RH  044%=      5-min Rain = 0
KAD1 100414Z 14014KT 25/11 A3031 RMK A01 T02460114  RH  043%=      5-min Rain = 0
KAD1 100415Z 14015KT 25/11 A3031 RMK A01 T02460114  RH  043%=      5-min Rain = 0
KAD1 100416Z 14015KT 25/11 A3031 RMK A01 T02460114  RH  043%=      5-min Rain = 0
KAD1 100417Z 13015KT 25/11 A3031 RMK A01 T02460113  RH  043%=      5-min Rain = 0
KAD1 100418Z 14014KT 25/11 A3031 RMK A01 T02460113  RH  043%=      5-min Rain = 0
KAD1 100419Z 14015KT 25/11 A3031 RMK A01 T02450113  RH  043%=      5-min Rain = 0
KAD1 100420Z 14015KT 25/11 A3031 RMK A01 T02450113  RH  044%=      5-min Rain = 0
KAD1 100421Z 14015KT 25/11 A3031 RMK A01 T02450113  RH  044%=      5-min Rain = 0
KAD1 100422Z 14016KT 25/11 A3031 RMK A01 T02450113  RH  043%=      5-min Rain = 0
KAD1 100423Z 14016KT 25/11 A3031 RMK A01 T02450112  RH  043%=      5-min Rain = 0
KAD1 100424Z 14016KT 25/11 A3031 RMK A01 T02450112  RH  043%=      5-min Rain = 0
KAD1 100425Z 14016KT 25/11 A3031 RMK A01 T02450112  RH  043%=      5-min Rain = 0
KAD1 100426Z 14017KT 25/11 A3031 RMK A01 T02450112  RH  043%=      5-min Rain = 0
KAD1 100427Z 14016KT 25/11 A3031 RMK A01 T02450112  RH  043%=      5-min Rain = 0
KAD1 100428Z 14016KT 24/11 A3031 RMK A01 T02440113  RH  044%=      5-min Rain = 0
KAD1 100429Z 14015KT 24/11 A3031 RMK A01 T02440112  RH  044%=      5-min Rain = 0
KAD1 100430Z 14016KT 24/11 A3031 RMK A01 T02430112  RH  044%=      5-min Rain = 0
KAD1 100431Z 14014KT 24/11 A3031 RMK A01 T02430112  RH  044%=      5-min Rain = 0
KAD1 100432Z 14014KT 24/11 A3031 RMK A01 T02420112  RH  044%=      5-min Rain = 0
KAD1 100433Z 14015KT 24/11 A3031 RMK A01 T02420112  RH  044%=      5-min Rain = 0
KAD1 100434Z 14016KT 24/11 A3031 RMK A01 T02410113  RH  044%=      5-min Rain = 0
KAD1 100435Z 14015KT 24/11 A3031 RMK A01 T02410113  RH  044%=      5-min Rain = 0
KAD1 100436Z 15016KT 24/11 A3031 RMK A01 T02410112  RH  044%=      5-min Rain = 0
KAD1 100437Z 15016KT 24/11 A3031 RMK A01 T02410112  RH  044%=      5-min Rain = 0
KAD1 100438Z 14016KT 24/11 A3031 RMK A01 T02410112  RH  044%=      5-min Rain = 0
KAD1 100439Z 15016KT 24/11 A3031 RMK A01 T02420113  RH  044%=      5-min Rain = 0
KAD1 100440Z 15016KT 24/11 A3031 RMK A01 T02410112  RH  044%=      5-min Rain = 0
KAD1 100441Z 14016KT 24/11 A3031 RMK A01 T02420113  RH  044%=      5-min Rain = 0
KAD1 100442Z 15016KT 24/11 A3031 RMK A01 T02410112  RH  044%=      5-min Rain = 0
KAD1 100443Z 14015KT 24/11 A3031 RMK A01 T02410112  RH  044%=      5-min Rain = 0
KAD1 100444Z 15016KT 24/11 A3031 RMK A01 T02410113  RH  045%=      5-min Rain = 0
KAD1 100445Z 15016KT 24/11 A3031 RMK A01 T02410113  RH  045%=      5-min Rain = 0
KAD1 100446Z 15015KT 24/11 A3031 RMK A01 T02410113  RH  045%=      5-min Rain = 0
KAD1 100447Z 15015KT 24/11 A3031 RMK A01 T02400113  RH  045%=      5-min Rain = 0
KAD1 100448Z 15015KT 24/11 A3031 RMK A01 T02400113  RH  045%=      5-min Rain = 0
KAD1 100449Z 15016KT 24/11 A3031 RMK A01 T02400113  RH  045%=      5-min Rain = 0
KAD1 100450Z 15015KT 24/11 A3031 RMK A01 T02400113  RH  045%=      5-min Rain = 0
KAD1 100451Z 15015KT 24/11 A3031 RMK A01 T02400114  RH  045%=      5-min Rain = 0
KAD1 100452Z 15015KT 24/11 A3031 RMK A01 T02400114  RH  045%=      5-min Rain = 0
KAD1 100453Z 15014KT 24/11 A3031 RMK A01 T02390113  RH  045%=      5-min Rain = 0
KAD1 100454Z 15014KT 24/11 A3031 RMK A01 T02390114  RH  045%=      5-min Rain = 0
KAD1 100455Z 15014KT 24/11 A3031 RMK A01 T02380114  RH  045%=      5-min Rain = 0
KAD1 100456Z 15014KT 24/11 A3031 RMK A01 T02380114  RH  046%=      5-min Rain = 0
KAD1 100457Z 15013KT 24/11 A3031 RMK A01 T02370113  RH  046%=      5-min Rain = 0
KAD1 100458Z 15014KT 24/11 A3031 RMK A01 T02370114  RH  046%=      5-min Rain = 0
KAD1 100459Z 15013KT 24/11 A3031 RMK A01 T02360113  RH  046%=      5-min Rain = 0

Page generated in 0.0768 seconds.